Wetterdaten: Dienstag, 10.02.2015
Datum Zeit Temp. Aussen +5cm Feuchte Auss Luftdruck Regen Sonnenschein Regendauer Solar Windben
10.02.2015 00:00 4,8 C 3,3 C 97 % 1030,1 hPa 0,0 l/m 0 min 0 min 0 W/m 10,5 km/h (2 Bft)
10.02.2015 00:02 4,8 C 3,3 C 97 % 1030,0 hPa 0,0 l/m 0 min 0 min 0 W/m 12,6 km/h (3 Bft)
10.02.2015 00:06 4,8 C 3,3 C 97 % 1030,0 hPa 0,0 l/m 0 min 0 min 0 W/m 10,5 km/h (2 Bft)
10.02.2015 00:08 4,8 C 3,3 C 97 % 1030,0 hPa 0,0 l/m 0 min 0 min 0 W/m 10,5 km/h (2 Bft)
10.02.2015 00:10 4,8 C 3,3 C 97 % 1030,1 hPa 0,0 l/m 0 min 0 min 0 W/m 10,5 km/h (2 Bft)
10.02.2015 00:12 4,8 C 3,3 C 97 % 1030,0 hPa 0,0 l/m 0 min 0 min 0 W/m 12,6 km/h (3 Bft)
10.02.2015 00:14 4,8 C 3,3 C 97 % 1030,1 hPa 0,0 l/m 0 min 0 min 0 W/m 14,6 km/h (3 Bft)
10.02.2015 00:16 4,8 C 3,3 C 97 % 1030,1 hPa 0,0 l/m 0 min 0 min 0 W/m 14,6 km/h (3 Bft)
10.02.2015 00:18 4,8 C 3,3 C 97 % 1030,0 hPa 0,0 l/m 0 min 0 min 0 W/m 12,6 km/h (3 Bft)
10.02.2015 00:20 4,8 C 3,3 C 97 % 1030,1 hPa 0,0 l/m 0 min 0 min 0 W/m 12,6 km/h (3 Bft)
10.02.2015 00:22 4,8 C 3,3 C 97 % 1030,1 hPa 0,0 l/m 0 min 0 min 0 W/m 12,6 km/h (3 Bft)
10.02.2015 00:24 4,8 C 3,3 C 97 % 1030,1 hPa 0,0 l/m 0 min 0 min 0 W/m 8,4 km/h (2 Bft)
10.02.2015 00:26 4,8 C 3,3 C 97 % 1030,1 hPa 0,0 l/m 0 min 0 min 0 W/m 12,6 km/h (3 Bft)
10.02.2015 00:28 4,8 C 3,3 C 97 % 1030,1 hPa 0,0 l/m 0 min 0 min 0 W/m 8,4 km/h (2 Bft)
10.02.2015 00:30 4,8 C 3,3 C 97 % 1030,1 hPa 0,0 l/m 0 min 0 min 0 W/m 8,4 km/h (2 Bft)
10.02.2015 00:32 4,8 C 3,3 C 97 % 1030,1 hPa 0,0 l/m 0 min 0 min 0 W/m 8,4 km/h (2 Bft)
10.02.2015 00:34 4,8 C 3,3 C 97 % 1030,1 hPa 0,0 l/m 0 min 0 min 0 W/m 14,6 km/h (3 Bft)
10.02.2015 00:36 4,7 C 3,3 C 97 % 1030,1 hPa 0,0 l/m 0 min 0 min 0 W/m 10,5 km/h (2 Bft)
10.02.2015 00:38 4,7 C 3,3 C 97 % 1030,1 hPa 0,0 l/m 0 min 0 min 0 W/m 10,5 km/h (2 Bft)
10.02.2015 00:40 4,7 C 3,3 C 97 % 1030,1 hPa 0,0 l/m 0 min 2 min 0 W/m 10,5 km/h (2 Bft)
10.02.2015 00:42 4,7 C 3,3 C 97 % 1030,1 hPa 0,0 l/m 0 min 2 min 0 W/m 12,6 km/h (3 Bft)
10.02.2015 00:44 4,7 C 3,3 C 97 % 1030,0 hPa 0,0 l/m 0 min 2 min 0 W/m 6,3 km/h (2 Bft)
10.02.2015 00:46 4,7 C 3,3 C 97 % 1030,0 hPa 0,0 l/m 0 min 2 min 0 W/m 8,4 km/h (2 Bft)
10.02.2015 00:48 4,7 C 3,3 C 97 % 1030,0 hPa 0,0 l/m 0 min 2 min 0 W/m 12,6 km/h (3 Bft)
10.02.2015 00:50 4,7 C 3,3 C 97 % 1030,0 hPa 0,0 l/m 0 min 2 min 0 W/m 14,6 km/h (3 Bft)
10.02.2015 00:52 4,7 C 3,3 C 97 % 1030,0 hPa 0,0 l/m 0 min 2 min 0 W/m 10,5 km/h (2 Bft)
10.02.2015 00:54 4,7 C 3,3 C 97 % 1030,0 hPa 0,0 l/m 0 min 0 min 0 W/m 12,6 km/h (3 Bft)
10.02.2015 00:56 4,7 C 3,3 C 97 % 1030,0 hPa 0,0 l/m 0 min 0 min 0 W/m 12,6 km/h (3 Bft)
10.02.2015 00:58 4,7 C 3,3 C 97 % 1030,0 hPa 0,0 l/m 0 min 0 min 0 W/m 14,6 km/h (3 Bft)
10.02.2015 01:00 4,7 C 3,3 C 97 % 1030,0 hPa 0,0 l/m 0 min 0 min 0 W/m 10,5 km/h (2 Bft)
10.02.2015 01:02 4,7 C 3,3 C 97 % 1030,0 hPa 0,0 l/m 0 min 0 min 0 W/m 12,6 km/h (3 Bft)
10.02.2015 01:04 4,7 C 3,3 C 97 % 1030,0 hPa 0,0 l/m 0 min 0 min 0 W/m 14,6 km/h (3 Bft)
10.02.2015 01:06 4,7 C 3,3 C 97 % 1030,0 hPa 0,0 l/m 0 min 0 min 0 W/m 12,6 km/h (3 Bft)
10.02.2015 01:08 4,7 C 3,3 C 97 % 1030,0 hPa 0,0 l/m 0 min 0 min 0 W/m 8,4 km/h (2 Bft)
10.02.2015 01:10 4,7 C 3,3 C 97 % 1030,0 hPa 0,0 l/m 0 min 0 min 0 W/m 8,4 km/h (2 Bft)
10.02.2015 01:12 4,7 C 3,3 C 97 % 1030,0 hPa 0,0 l/m 0 min 0 min 0 W/m 14,6 km/h (3 Bft)
10.02.2015 01:14 4,7 C 3,3 C 97 % 1030,0 hPa 0,0 l/m 0 min 0 min 0 W/m 12,6 km/h (3 Bft)
10.02.2015 01:16 4,7 C 3,3 C 97 % 1030,0 hPa 0,0 l/m 0 min 0 min 0 W/m 10,5 km/h (2 Bft)
10.02.2015 01:18 4,7 C 3,3 C 97 % 1030,0 hPa 0,0 l/m 0 min 0 min 0 W/m 12,6 km/h (3 Bft)
10.02.2015 01:20 4,7 C 3,3 C 97 % 1030,0 hPa 0,0 l/m 0 min 0 min 0 W/m 12,6 km/h (3 Bft)
10.02.2015 01:22 4,7 C 3,3 C 97 % 1029,9 hPa 0,0 l/m 0 min 0 min 0 W/m 16,7 km/h (3 Bft)
10.02.2015 01:24 4,7 C 3,3 C 97 % 1030,0 hPa 0,0 l/m 0 min 0 min 0 W/m 10,5 km/h (2 Bft)
10.02.2015 01:26 4,7 C 3,3 C 97 % 1030,0 hPa 0,2 l/m 0 min 0 min 0 W/m 14,6 km/h (3 Bft)
10.02.2015 01:28 4,7 C 3,3 C 97 % 1029,9 hPa 0,0 l/m 0 min 0 min 0 W/m 10,5 km/h (2 Bft)
10.02.2015 01:30 4,7 C 3,3 C 97 % 1030,0 hPa 0,0 l/m 0 min 0 min 0 W/m 10,5 km/h (2 Bft)
10.02.2015 01:32 4,7 C 3,3 C 97 % 1030,0 hPa 0,0 l/m 0 min 0 min 0 W/m 12,6 km/h (3 Bft)
10.02.2015 01:34 4,7 C 3,3 C 97 % 1030,0 hPa 0,0 l/m 0 min 0 min 0 W/m 14,6 km/h (3 Bft)
10.02.2015 01:36 4,7 C 3,3 C 97 % 1029,9 hPa 0,0 l/m 0 min 0 min 0 W/m 12,6 km/h (3 Bft)
10.02.2015 01:38 4,7 C 3,3 C 97 % 1030,0 hPa 0,0 l/m 0 min 0 min 0 W/m 8,4 km/h (2 Bft)
10.02.2015 01:40 4,7 C 3,3 C 97 % 1030,0 hPa 0,0 l/m 0 min 0 min 0 W/m 8,4 km/h (2 Bft)
10.02.2015 01:42 4,7 C 3,3 C 97 % 1030,0 hPa 0,0 l/m 0 min 0 min 0 W/m 10,5 km/h (2 Bft)
10.02.2015 01:44 4,7 C 3,3 C 97 % 1030,0 hPa 0,0 l/m 0 min 0 min 0 W/m 12,6 km/h (3 Bft)
10.02.2015 01:46 4,7 C 3,3 C 97 % 1030,0 hPa 0,0 l/m 0 min 0 min 0 W/m 12,6 km/h (3 Bft)
10.02.2015 01:48 4,7 C 3,3 C 97 % 1030,0 hPa 0,0 l/m 0 min 0 min 0 W/m 12,6 km/h (3 Bft)
10.02.2015 01:50 4,7 C 3,3 C 97 % 1030,0 hPa 0,0 l/m 0 min 0 min 0 W/m 10,5 km/h (2 Bft)
10.02.2015 01:52 4,7 C 3,3 C 97 % 1030,0 hPa 0,0 l/m 0 min 0 min 0 W/m 6,3 km/h (2 Bft)
10.02.2015 01:54 4,7 C 3,3 C 97 % 1030,0 hPa 0,0 l/m 0 min 2 min 0 W/m 12,6 km/h (3 Bft)
10.02.2015 01:56 4,7 C 3,3 C 97 % 1030,0 hPa 0,0 l/m 0 min 0 min 0 W/m 10,5 km/h (2 Bft)
10.02.2015 01:58 4,7 C 3,3 C 97 % 1029,9 hPa 0,0 l/m 0 min 0 min 0 W/m 12,6 km/h (3 Bft)
10.02.2015 02:00 4,7 C 3,3 C 97 % 1030,0 hPa 0,0 l/m 0 min 0 min 0 W/m 6,3 km/h (2 Bft)
10.02.2015 02:02 4,7 C 3,3 C 97 % 1030,0 hPa 0,0 l/m 0 min 0 min 0 W/m 12,6 km/h (3 Bft)
10.02.2015 02:04 4,7 C 3,3 C 97 % 1030,0 hPa 0,0 l/m 0 min 0 min 0 W/m 12,6 km/h (3 Bft)
10.02.2015 02:06 4,7 C 3,3 C 97 % 1030,0 hPa 0,0 l/m 0 min 0 min 0 W/m 8,4 km/h (2 Bft)
10.02.2015 02:08 4,7 C 3,3 C 98 % 1029,9 hPa 0,0 l/m 0 min 2 min 0 W/m 12,6 km/h (3 Bft)
10.02.2015 02:10 4,7 C 3,3 C 98 % 1030,0 hPa 0,0 l/m 0 min 2 min 0 W/m 12,6 km/h (3 Bft)
10.02.2015 02:12 4,7 C 3,3 C 98 % 1030,0 hPa 0,0 l/m 0 min 2 min 0 W/m 10,5 km/h (2 Bft)
10.02.2015 02:14 4,7 C 3,3 C 98 % 1030,0 hPa 0,0 l/m 0 min 2 min 0 W/m 12,6 km/h (3 Bft)
10.02.2015 02:16 4,7 C 3,3 C 98 % 1030,0 hPa 0,0 l/m 0 min 2 min 0 W/m 14,6 km/h (3 Bft)
10.02.2015 02:18 4,7 C 3,3 C 98 % 1030,0 hPa 0,0 l/m 0 min 2 min 0 W/m 14,6 km/h (3 Bft)
10.02.2015 02:20 4,7 C 3,3 C 98 % 1030,0 hPa 0,0 l/m 0 min 2 min 0 W/m 10,5 km/h (2 Bft)
10.02.2015 02:22 4,7 C 3,3 C 98 % 1030,1 hPa 0,0 l/m 0 min 2 min 0 W/m 14,6 km/h (3 Bft)
10.02.2015 02:24 4,7 C 3,3 C 98 % 1030,0 hPa 0,0 l/m 0 min 2 min 0 W/m 8,4 km/h (2 Bft)
10.02.2015 02:26 4,7 C 3,3 C 98 % 1030,0 hPa 0,0 l/m 0 min 2 min 0 W/m 8,4 km/h (2 Bft)
10.02.2015 02:28 4,7 C 3,3 C 98 % 1030,0 hPa 0,0 l/m 0 min 2 min 0 W/m 12,6 km/h (3 Bft)
10.02.2015 02:30 4,7 C 3,3 C 98 % 1030,0 hPa 0,0 l/m 0 min 2 min 0 W/m 12,6 km/h (3 Bft)
10.02.2015 02:32 4,7 C 3,3 C 98 % 1030,1 hPa 0,0 l/m 0 min 2 min 0 W/m 10,5 km/h (2 Bft)
10.02.2015 02:34 4,7 C 3,3 C 98 % 1030,1 hPa 0,0 l/m 0 min 2 min 0 W/m 10,5 km/h (2 Bft)
10.02.2015 02:36 4,7 C 3,3 C 98 % 1030,1 hPa 0,0 l/m 0 min 2 min 0 W/m 12,6 km/h (3 Bft)
10.02.2015 02:38 4,7 C 3,3 C 98 % 1030,1 hPa 0,0 l/m 0 min 2 min 0 W/m 10,5 km/h (2 Bft)
10.02.2015 02:40 4,7 C 3,3 C 98 % 1030,2 hPa 0,0 l/m 0 min 2 min 0 W/m 10,5 km/h (2 Bft)
10.02.2015 02:42 4,7 C 3,3 C 98 % 1030,2 hPa 0,0 l/m 0 min 0 min 0 W/m 8,4 km/h (2 Bft)
10.02.2015 02:44 4,7 C 3,3 C 98 % 1030,2 hPa 0,0 l/m 0 min 0 min 0 W/m 10,5 km/h (2 Bft)
10.02.2015 02:46 4,7 C 3,3 C 98 % 1030,2 hPa 0,0 l/m 0 min 0 min 0 W/m 8,4 km/h (2 Bft)
10.02.2015 02:48 4,7 C 3,3 C 98 % 1030,2 hPa 0,0 l/m 0 min 0 min 0 W/m 8,4 km/h (2 Bft)
10.02.2015 02:50 4,8 C 3,3 C 98 % 1030,2 hPa 0,0 l/m 0 min 0 min 0 W/m 10,5 km/h (2 Bft)
10.02.2015 02:52 4,7 C 3,3 C 98 % 1030,1 hPa 0,0 l/m 0 min 0 min 0 W/m 12,6 km/h (3 Bft)
10.02.2015 02:54 4,8 C 3,3 C 98 % 1030,1 hPa 0,0 l/m 0 min 0 min 0 W/m 12,6 km/h (3 Bft)
10.02.2015 02:56 4,7 C 3,3 C 98 % 1030,1 hPa 0,0 l/m 0 min 2 min 0 W/m 10,5 km/h (2 Bft)
10.02.2015 02:58 4,7 C 3,3 C 98 % 1030,1 hPa 0,0 l/m 0 min 0 min 0 W/m 14,6 km/h (3 Bft)
10.02.2015 03:00 4,7 C 3,3 C 98 % 1030,1 hPa 0,0 l/m 0 min 0 min 0 W/m 8,4 km/h (2 Bft)
10.02.2015 03:02 4,7 C 3,3 C 98 % 1030,1 hPa 0,0 l/m 0 min 0 min 0 W/m 10,5 km/h (2 Bft)
10.02.2015 03:04 4,7 C 3,3 C 98 % 1030,1 hPa 0,0 l/m 0 min 0 min 0 W/m 8,4 km/h (2 Bft)
10.02.2015 03:06 4,7 C 3,3 C 98 % 1030,1 hPa 0,0 l/m 0 min 0 min 0 W/m 10,5 km/h (2 Bft)
10.02.2015 03:08 4,7 C 3,3 C 98 % 1030,1 hPa 0,0 l/m 0 min 0 min 0 W/m 8,4 km/h (2 Bft)
10.02.2015 03:10 4,7 C 3,3 C 98 % 1030,1 hPa 0,0 l/m 0 min 0 min 0 W/m 8,4 km/h (2 Bft)
10.02.2015 03:12 4,7 C 3,3 C 98 % 1030,1 hPa 0,0 l/m 0 min 0 min 0 W/m 10,5 km/h (2 Bft)
10.02.2015 03:14 4,7 C 3,3 C 98 % 1030,1 hPa 0,0 l/m 0 min 0 min 0 W/m 12,6 km/h (3 Bft)
10.02.2015 03:16 4,7 C 3,3 C 98 % 1030,1 hPa 0,0 l/m 0 min 0 min 0 W/m 10,5 km/h (2 Bft)
10.02.2015 03:18 4,7 C 3,3 C 98 % 1030,1 hPa 0,0 l/m 0 min 0 min 0 W/m 8,4 km/h (2 Bft)
10.02.2015 03:20 4,7 C 3,3 C 98 % 1030,1 hPa 0,0 l/m 0 min 0 min 0 W/m 10,5 km/h (2 Bft)
10.02.2015 03:22 4,7 C 3,3 C 98 % 1030,1 hPa 0,0 l/m 0 min 0 min 0 W/m 10,5 km/h (2 Bft)
10.02.2015 03:24 4,7 C 3,3 C 98 % 1030,1 hPa 0,0 l/m 0 min 0 min 0 W/m 8,4 km/h (2 Bft)
10.02.2015 03:26 4,7 C 3,3 C 98 % 1030,1 hPa 0,0 l/m 0 min 0 min 0 W/m 10,5 km/h (2 Bft)
10.02.2015 03:28 4,7 C 3,3 C 98 % 1030,1 hPa 0,0 l/m 0 min 0 min 0 W/m 8,4 km/h (2 Bft)
10.02.2015 03:30 4,7 C 3,3 C 98 % 1030,1 hPa 0,0 l/m 0 min 0 min 0 W/m 8,4 km/h (2 Bft)
10.02.2015 03:32 4,7 C 3,3 C 98 % 1030,1 hPa 0,0 l/m 0 min 0 min 0 W/m 6,3 km/h (2 Bft)
10.02.2015 03:34 4,7 C 3,3 C 98 % 1030,1 hPa 0,0 l/m 0 min 0 min 0 W/m 10,5 km/h (2 Bft)
10.02.2015 03:36 4,7 C 3,3 C 98 % 1030,1 hPa 0,0 l/m 0 min 0 min 0 W/m 8,4 km/h (2 Bft)
10.02.2015 03:38 4,7 C 3,3 C 98 % 1030,1 hPa 0,0 l/m 0 min 0 min 0 W/m 12,6 km/h (3 Bft)
10.02.2015 03:40 4,7 C 3,3 C 98 % 1030,1 hPa 0,0 l/m 0 min 0 min 0 W/m 10,5 km/h (2 Bft)
10.02.2015 03:42 4,7 C 3,3 C 98 % 1030,1 hPa 0,0 l/m 0 min 0 min 0 W/m 8,4 km/h (2 Bft)
10.02.2015 03:44 4,7 C 3,3 C 98 % 1030,1 hPa 0,0 l/m 0 min 0 min 0 W/m 14,6 km/h (3 Bft)
10.02.2015 03:46 4,7 C 3,3 C 98 % 1030,1 hPa 0,0 l/m 0 min 0 min 0 W/m 10,5 km/h (2 Bft)
10.02.2015 03:48 4,7 C 3,3 C 98 % 1030,1 hPa 0,0 l/m 0 min 0 min 0 W/m 10,5 km/h (2 Bft)
10.02.2015 03:50 4,7 C 3,3 C 98 % 1030,1 hPa 0,0 l/m 0 min 0 min 0 W/m 8,4 km/h (2 Bft)
10.02.2015 03:52 4,7 C 3,3 C 98 % 1030,1 hPa 0,0 l/m 0 min 0 min 0 W/m 10,5 km/h (2 Bft)
10.02.2015 03:54 4,7 C 3,3 C 98 % 1030,1 hPa 0,0 l/m 0 min 2 min 0 W/m 6,3 km/h (2 Bft)
10.02.2015 03:56 4,7 C 3,3 C 98 % 1030,2 hPa 0,0 l/m 0 min 2 min 0 W/m 8,4 km/h (2 Bft)
10.02.2015 03:58 4,7 C 3,3 C 98 % 1030,1 hPa 0,0 l/m 0 min 0 min 0 W/m 10,5 km/h (2 Bft)
10.02.2015 04:00 4,7 C 3,3 C 98 % 1030,1 hPa 0,0 l/m 0 min 0 min 0 W/m 12,6 km/h (3 Bft)
10.02.2015 04:06 4,6 C 3,3 C 98 % 1030,2 hPa 0,0 l/m 0 min 0 min 0 W/m 8,4 km/h (2 Bft)
10.02.2015 04:08 4,7 C 3,3 C 98 % 1030,3 hPa 0,0 l/m 0 min 0 min 0 W/m 8,4 km/h (2 Bft)
10.02.2015 04:10 4,7 C 3,3 C 98 % 1030,1 hPa 0,0 l/m 0 min 0 min 0 W/m 6,3 km/h (2 Bft)
10.02.2015 04:12 4,7 C 3,3 C 98 % 1030,1 hPa 0,0 l/m 0 min 0 min 0 W/m 8,4 km/h (2 Bft)
10.02.2015 04:14 4,7 C 3,3 C 98 % 1030,1 hPa 0,0 l/m 0 min 0 min 0 W/m 8,4 km/h (2 Bft)
10.02.2015 04:16 4,7 C 3,3 C 98 % 1030,2 hPa 0,0 l/m 0 min 0 min 0 W/m 12,6 km/h (3 Bft)
10.02.2015 04:18 4,7 C 3,3 C 98 % 1030,2 hPa 0,0 l/m 0 min 2 min 0 W/m 10,5 km/h (2 Bft)
10.02.2015 04:20 4,7 C 3,3 C 98 % 1030,2 hPa 0,0 l/m 0 min 0 min 0 W/m 12,6 km/h (3 Bft)
10.02.2015 04:22 4,7 C 3,3 C 98 % 1030,2 hPa 0,0 l/m 0 min 0 min 0 W/m 8,4 km/h (2 Bft)
10.02.2015 04:24 4,7 C 3,3 C 98 % 1030,2 hPa 0,0 l/m 0 min 0 min 0 W/m 10,5 km/h (2 Bft)
10.02.2015 04:26 4,7 C 3,3 C 98 % 1030,2 hPa 0,0 l/m 0 min 0 min 0 W/m 10,5 km/h (2 Bft)
10.02.2015 04:28 4,7 C 3,3 C 98 % 1030,3 hPa 0,0 l/m 0 min 0 min 0 W/m 12,6 km/h (3 Bft)
10.02.2015 04:30 4,7 C 3,3 C 98 % 1030,3 hPa 0,0 l/m 0 min 0 min 0 W/m 10,5 km/h (2 Bft)
10.02.2015 04:32 4,7 C 3,3 C 98 % 1030,3 hPa 0,0 l/m 0 min 0 min 0 W/m 10,5 km/h (2 Bft)
10.02.2015 04:34 4,7 C 3,3 C 98 % 1030,3 hPa 0,0 l/m 0 min 0 min 0 W/m 10,5 km/h (2 Bft)
10.02.2015 04:36 4,7 C 3,3 C 98 % 1030,3 hPa 0,0 l/m 0 min 0 min 0 W/m 12,6 km/h (3 Bft)
10.02.2015 04:38 4,7 C 3,3 C 98 % 1030,3 hPa 0,0 l/m 0 min 0 min 0 W/m 14,6 km/h (3 Bft)
10.02.2015 04:40 4,7 C 3,3 C 98 % 1030,3 hPa 0,0 l/m 0 min 0 min 0 W/m 12,6 km/h (3 Bft)
10.02.2015 04:42 4,7 C 3,3 C 98 % 1030,4 hPa 0,0 l/m 0 min 0 min 0 W/m 8,4 km/h (2 Bft)
10.02.2015 04:44 4,7 C 3,3 C 98 % 1030,3 hPa 0,0 l/m 0 min 0 min 0 W/m 10,5 km/h (2 Bft)
10.02.2015 04:46 4,7 C 3,3 C 98 % 1030,2 hPa 0,0 l/m 0 min 0 min 0 W/m 14,6 km/h (3 Bft)
10.02.2015 04:48 4,7 C 3,3 C 98 % 1030,3 hPa 0,0 l/m 0 min 0 min 0 W/m 8,4 km/h (2 Bft)
10.02.2015 04:50 4,7 C 3,3 C 98 % 1030,4 hPa 0,0 l/m 0 min 0 min 0 W/m 8,4 km/h (2 Bft)
10.02.2015 04:52 4,7 C 2,8 C 98 % 1030,4 hPa 0,2 l/m 0 min 0 min 0 W/m 8,4 km/h (2 Bft)
10.02.2015 04:54 4,7 C 2,8 C 98 % 1030,4 hPa 0,0 l/m 0 min 0 min 0 W/m 8,4 km/h (2 Bft)
10.02.2015 04:56 4,6 C 2,8 C 98 % 1030,3 hPa 0,0 l/m 0 min 0 min 0 W/m 10,5 km/h (2 Bft)
10.02.2015 04:58 4,6 C 3,3 C 98 % 1030,3 hPa 0,0 l/m 0 min 0 min 0 W/m 8,4 km/h (2 Bft)
10.02.2015 05:00 4,6 C 3,3 C 98 % 1030,4 hPa 0,0 l/m 0 min 0 min 0 W/m 10,5 km/h (2 Bft)
10.02.2015 05:02 4,6 C 3,3 C 98 % 1030,4 hPa 0,0 l/m 0 min 0 min 0 W/m 6,3 km/h (2 Bft)
10.02.2015 05:04 4,6 C 3,3 C 98 % 1030,4 hPa 0,0 l/m 0 min 0 min 0 W/m 8,4 km/h (2 Bft)
10.02.2015 05:06 4,6 C 3,3 C 98 % 1030,3 hPa 0,0 l/m 0 min 0 min 0 W/m 6,3 km/h (2 Bft)
10.02.2015 05:08 4,6 C 3,3 C 98 % 1030,3 hPa 0,0 l/m 0 min 0 min 0 W/m 10,5 km/h (2 Bft)
10.02.2015 05:10 4,6 C 3,3 C 98 % 1030,4 hPa 0,0 l/m 0 min 0 min 0 W/m 12,6 km/h (3 Bft)
10.02.2015 05:12 4,6 C 3,3 C 98 % 1030,4 hPa 0,0 l/m 0 min 2 min 0 W/m 8,4 km/h (2 Bft)
10.02.2015 05:14 4,6 C 3,3 C 98 % 1030,4 hPa 0,0 l/m 0 min 2 min 0 W/m 10,5 km/h (2 Bft)
10.02.2015 05:16 4,5 C 3,3 C 98 % 1030,4 hPa 0,0 l/m 0 min 0 min 0 W/m 8,4 km/h (2 Bft)
10.02.2015 05:18 4,6 C 3,3 C 98 % 1030,4 hPa 0,0 l/m 0 min 0 min 0 W/m 12,6 km/h (3 Bft)
10.02.2015 05:20 4,6 C 3,3 C 98 % 1030,4 hPa 0,0 l/m 0 min 0 min 0 W/m 6,3 km/h (2 Bft)
10.02.2015 05:22 4,5 C 3,3 C 98 % 1030,4 hPa 0,0 l/m 0 min 0 min 0 W/m 6,3 km/h (2 Bft)
10.02.2015 05:24 4,6 C 3,3 C 98 % 1030,4 hPa 0,0 l/m 0 min 2 min 0 W/m 8,4 km/h (2 Bft)
10.02.2015 05:26 4,5 C 3,3 C 98 % 1030,4 hPa 0,0 l/m 0 min 0 min 0 W/m 8,4 km/h (2 Bft)
10.02.2015 05:28 4,5 C 3,3 C 98 % 1030,4 hPa 0,0 l/m 0 min 0 min 0 W/m 8,4 km/h (2 Bft)
10.02.2015 05:30 4,6 C 3,3 C 98 % 1030,5 hPa 0,0 l/m 0 min 0 min 0 W/m 6,3 km/h (2 Bft)
10.02.2015 05:32 4,6 C 3,3 C 98 % 1030,4 hPa 0,0 l/m 0 min 0 min 0 W/m 6,3 km/h (2 Bft)
10.02.2015 05:34 4,5 C 3,3 C 98 % 1030,4 hPa 0,0 l/m 0 min 0 min 0 W/m 8,4 km/h (2 Bft)
10.02.2015 05:36 4,6 C 3,3 C 98 % 1030,4 hPa 0,0 l/m 0 min 0 min 0 W/m 8,4 km/h (2 Bft)
10.02.2015 05:38 4,6 C 3,3 C 98 % 1030,5 hPa 0,0 l/m 0 min 0 min 0 W/m 10,5 km/h (2 Bft)
10.02.2015 05:40 4,6 C 3,3 C 98 % 1030,5 hPa 0,0 l/m 0 min 0 min 0 W/m 8,4 km/h (2 Bft)
10.02.2015 05:42 4,6 C 3,3 C 98 % 1030,5 hPa 0,0 l/m 0 min 0 min 0 W/m 10,5 km/h (2 Bft)
10.02.2015 05:44 4,6 C 3,3 C 98 % 1030,4 hPa 0,0 l/m 0 min 0 min 0 W/m 10,5 km/h (2 Bft)
10.02.2015 05:46 4,6 C 3,3 C 98 % 1030,5 hPa 0,0 l/m 0 min 0 min 0 W/m 6,3 km/h (2 Bft)
10.02.2015 05:48 4,6 C 3,3 C 98 % 1030,4 hPa 0,0 l/m 0 min 0 min 0 W/m 14,6 km/h (3 Bft)
10.02.2015 05:50 4,6 C 3,3 C 98 % 1030,4 hPa 0,0 l/m 0 min 0 min 0 W/m 12,6 km/h (3 Bft)
10.02.2015 05:52 4,6 C 3,3 C 98 % 1030,4 hPa 0,0 l/m 0 min 0 min 0 W/m 10,5 km/h (2 Bft)
10.02.2015 05:54 4,6 C 3,3 C 98 % 1030,5 hPa 0,0 l/m 0 min 0 min 0 W/m 10,5 km/h (2 Bft)
10.02.2015 05:56 4,6 C 3,3 C 98 % 1030,5 hPa 0,0 l/m 0 min 0 min 0 W/m 12,6 km/h (3 Bft)
10.02.2015 05:58 4,6 C 3,3 C 98 % 1030,5 hPa 0,0 l/m 0 min 0 min 0 W/m 8,4 km/h (2 Bft)
10.02.2015 06:00 4,6 C 3,3 C 98 % 1030,4 hPa 0,0 l/m 0 min 0 min 0 W/m 4,2 km/h (1 Bft)
10.02.2015 06:02 4,6 C 3,3 C 98 % 1030,4 hPa 0,0 l/m 0 min 0 min 0 W/m 8,4 km/h (2 Bft)
10.02.2015 06:06 4,6 C 3,3 C 98 % 1030,5 hPa 0,0 l/m 0 min 0 min 0 W/m 10,5 km/h (2 Bft)
10.02.2015 06:08 4,6 C 3,3 C 98 % 1030,4 hPa 0,0 l/m 0 min 0 min 0 W/m 8,4 km/h (2 Bft)
10.02.2015 06:10 4,6 C 3,3 C 98 % 1030,4 hPa 0,0 l/m 0 min 0 min 0 W/m 8,4 km/h (2 Bft)
10.02.2015 06:12 4,6 C 3,3 C 98 % 1030,5 hPa 0,0 l/m 0 min 0 min 0 W/m 8,4 km/h (2 Bft)
10.02.2015 06:14 4,6 C 3,3 C 98 % 1030,5 hPa 0,0 l/m 0 min 0 min 0 W/m 12,6 km/h (3 Bft)
10.02.2015 06:16 4,6 C 3,3 C 98 % 1030,5 hPa 0,0 l/m 0 min 0 min 0 W/m 10,5 km/h (2 Bft)
10.02.2015 06:18 4,6 C 3,3 C 98 % 1030,5 hPa 0,0 l/m 0 min 0 min 0 W/m 12,6 km/h (3 Bft)
10.02.2015 06:20 4,6 C 3,3 C 98 % 1030,4 hPa 0,0 l/m 0 min 0 min 0 W/m 14,6 km/h (3 Bft)
10.02.2015 06:22 4,6 C 3,3 C 98 % 1030,5 hPa 0,0 l/m 0 min 0 min 0 W/m 12,6 km/h (3 Bft)
10.02.2015 06:24 4,6 C 3,3 C 98 % 1030,5 hPa 0,0 l/m 0 min 2 min 0 W/m 10,5 km/h (2 Bft)
10.02.2015 06:26 4,6 C 3,3 C 98 % 1030,5 hPa 0,0 l/m 0 min 0 min 0 W/m 12,6 km/h (3 Bft)
10.02.2015 06:28 4,6 C 3,3 C 98 % 1030,5 hPa 0,0 l/m 0 min 0 min 0 W/m 10,5 km/h (2 Bft)
10.02.2015 06:30 4,6 C 3,3 C 98 % 1030,5 hPa 0,0 l/m 0 min 0 min 0 W/m 10,5 km/h (2 Bft)
10.02.2015 06:32 4,6 C 3,3 C 98 % 1030,5 hPa 0,0 l/m 0 min 0 min 0 W/m 12,6 km/h (3 Bft)
10.02.2015 06:34 4,6 C 3,3 C 98 % 1030,5 hPa 0,0 l/m 0 min 0 min 0 W/m 10,5 km/h (2 Bft)
10.02.2015 06:36 4,6 C 3,3 C 98 % 1030,5 hPa 0,0 l/m 0 min 0 min 0 W/m 10,5 km/h (2 Bft)
10.02.2015 06:38 4,6 C 3,3 C 98 % 1030,5 hPa 0,0 l/m 0 min 0 min 0 W/m 8,4 km/h (2 Bft)
10.02.2015 06:40 4,6 C 3,3 C 98 % 1030,5 hPa 0,0 l/m 0 min 0 min 0 W/m 8,4 km/h (2 Bft)
10.02.2015 06:42 4,6 C 3,3 C 98 % 1030,5 hPa 0,0 l/m 0 min 0 min 0 W/m 6,3 km/h (2 Bft)
10.02.2015 06:44 4,6 C 3,3 C 98 % 1030,4 hPa 0,0 l/m 0 min 0 min 0 W/m 10,5 km/h (2 Bft)
10.02.2015 06:46 4,6 C 3,3 C 98 % 1030,4 hPa 0,0 l/m 0 min 0 min 0 W/m 8,4 km/h (2 Bft)
10.02.2015 06:48 4,6 C 3,3 C 98 % 1030,4 hPa 0,0 l/m 0 min 0 min 0 W/m 8,4 km/h (2 Bft)
10.02.2015 06:50 4,6 C 3,3 C 98 % 1030,4 hPa 0,0 l/m 0 min 0 min 0 W/m 10,5 km/h (2 Bft)
10.02.2015 06:52 4,6 C 3,3 C 98 % 1030,4 hPa 0,0 l/m 0 min 0 min 0 W/m 8,4 km/h (2 Bft)
10.02.2015 06:54 4,6 C 3,3 C 98 % 1030,4 hPa 0,0 l/m 0 min 0 min 0 W/m 10,5 km/h (2 Bft)
10.02.2015 06:56 4,6 C 3,3 C 98 % 1030,4 hPa 0,0 l/m 0 min 0 min 0 W/m 8,4 km/h (2 Bft)
10.02.2015 06:58 4,6 C 3,3 C 98 % 1030,4 hPa 0,0 l/m 0 min 0 min 0 W/m 10,5 km/h (2 Bft)
10.02.2015 07:00 4,6 C 3,3 C 98 % 1030,4 hPa 0,0 l/m 0 min 0 min 0 W/m 10,5 km/h (2 Bft)
10.02.2015 07:02 4,6 C 3,3 C 98 % 1030,4 hPa 0,0 l/m 0 min 0 min 0 W/m 12,6 km/h (3 Bft)
10.02.2015 07:04 4,6 C 3,3 C 98 % 1030,4 hPa 0,0 l/m 0 min 0 min 0 W/m 10,5 km/h (2 Bft)
10.02.2015 07:06 4,6 C 3,3 C 98 % 1030,4 hPa 0,0 l/m 0 min 0 min 0 W/m 8,4 km/h (2 Bft)
10.02.2015 07:08 4,6 C 3,3 C 98 % 1030,5 hPa 0,0 l/m 0 min 0 min 0 W/m 10,5 km/h (2 Bft)
10.02.2015 07:10 4,5 C 3,3 C 98 % 1030,5 hPa 0,0 l/m 0 min 0 min 0 W/m 8,4 km/h (2 Bft)
10.02.2015 07:12 4,5 C 3,3 C 98 % 1030,5 hPa 0,0 l/m 0 min 0 min 0 W/m 6,3 km/h (2 Bft)
10.02.2015 07:14 4,5 C 3,3 C 98 % 1030,5 hPa 0,0 l/m 0 min 0 min 0 W/m 8,4 km/h (2 Bft)
10.02.2015 07:16 4,5 C 3,3 C 98 % 1030,5 hPa 0,0 l/m 0 min 0 min 0 W/m 8,4 km/h (2 Bft)
10.02.2015 07:18 4,5 C 2,8 C 98 % 1030,6 hPa 0,0 l/m 0 min 0 min 0 W/m 6,3 km/h (2 Bft)
10.02.2015 07:20 4,5 C 2,8 C 98 % 1030,6 hPa 0,0 l/m 0 min 0 min 0 W/m 6,3 km/h (2 Bft)
10.02.2015 07:22 4,5 C 2,8 C 98 % 1030,6 hPa 0,0 l/m 0 min 0 min 0 W/m 8,4 km/h (2 Bft)
10.02.2015 07:24 4,5 C 2,8 C 98 % 1030,6 hPa 0,0 l/m 0 min 0 min 0 W/m 8,4 km/h (2 Bft)
10.02.2015 07:26 4,5 C 3,3 C 98 % 1030,6 hPa 0,0 l/m 0 min 0 min 0 W/m 8,4 km/h (2 Bft)
10.02.2015 07:28 4,5 C 3,3 C 98 % 1030,6 hPa 0,0 l/m 0 min 2 min 0 W/m 6,3 km/h (2 Bft)
10.02.2015 07:30 4,4 C 3,3 C 98 % 1030,6 hPa 0,0 l/m 0 min 2 min 0 W/m 8,4 km/h (2 Bft)
10.02.2015 07:32 4,5 C 3,3 C 98 % 1030,6 hPa 0,0 l/m 0 min 0 min 0 W/m 6,3 km/h (2 Bft)
10.02.2015 07:34 4,4 C 3,3 C 98 % 1030,6 hPa 0,0 l/m 0 min 0 min 0 W/m 8,4 km/h (2 Bft)
10.02.2015 07:36 4,4 C 3,3 C 98 % 1030,7 hPa 0,0 l/m 0 min 0 min 0 W/m 6,3 km/h (2 Bft)
10.02.2015 07:38 4,4 C 3,3 C 98 % 1030,6 hPa 0,0 l/m 0 min 0 min 0 W/m 8,4 km/h (2 Bft)
10.02.2015 07:40 4,4 C 3,3 C 98 % 1030,6 hPa 0,0 l/m 0 min 0 min 0 W/m 6,3 km/h (2 Bft)
10.02.2015 07:42 4,4 C 3,3 C 98 % 1030,6 hPa 0,0 l/m 0 min 0 min 0 W/m 6,3 km/h (2 Bft)
10.02.2015 07:44 4,4 C 3,3 C 98 % 1030,6 hPa 0,0 l/m 0 min 0 min 0 W/m 6,3 km/h (2 Bft)
10.02.2015 07:46 4,4 C 3,3 C 98 % 1030,7 hPa 0,0 l/m 0 min 0 min 0 W/m 6,3 km/h (2 Bft)
10.02.2015 07:48 4,4 C 3,3 C 98 % 1030,7 hPa 0,0 l/m 0 min 0 min 0 W/m 6,3 km/h (2 Bft)
10.02.2015 07:50 4,4 C 3,3 C 98 % 1030,7 hPa 0,0 l/m 0 min 0 min 0 W/m 6,3 km/h (2 Bft)
10.02.2015 07:52 4,4 C 3,3 C 98 % 1030,7 hPa 0,0 l/m 0 min 0 min 0 W/m 4,2 km/h (1 Bft)
10.02.2015 07:54 4,4 C 3,3 C 98 % 1030,7 hPa 0,0 l/m 0 min 0 min 0 W/m 8,4 km/h (2 Bft)
10.02.2015 07:56 4,4 C 3,3 C 98 % 1030,7 hPa 0,0 l/m 0 min 2 min 0 W/m 4,2 km/h (1 Bft)
10.02.2015 07:58 4,4 C 3,3 C 98 % 1030,8 hPa 0,0 l/m 0 min 2 min 0 W/m 6,3 km/h (2 Bft)
10.02.2015 08:00 4,4 C 3,3 C 98 % 1030,8 hPa 0,0 l/m 0 min 2 min 0 W/m 6,3 km/h (2 Bft)
10.02.2015 08:02 4,4 C 3,3 C 98 % 1030,8 hPa 0,0 l/m 0 min 2 min 0 W/m 4,2 km/h (1 Bft)
10.02.2015 08:04 4,4 C 3,3 C 98 % 1030,8 hPa 0,2 l/m 0 min 0 min 0 W/m 6,3 km/h (2 Bft)
10.02.2015 08:06 4,4 C 3,3 C 98 % 1030,8 hPa 0,0 l/m 0 min 0 min 0 W/m 8,4 km/h (2 Bft)
10.02.2015 08:08 4,4 C 3,3 C 98 % 1030,9 hPa 0,0 l/m 0 min 0 min 4 W/m 8,4 km/h (2 Bft)
10.02.2015 08:10 4,4 C 3,3 C 98 % 1030,9 hPa 0,0 l/m 0 min 0 min 5 W/m 6,3 km/h (2 Bft)
10.02.2015 08:12 4,4 C 3,3 C 98 % 1030,8 hPa 0,0 l/m 0 min 0 min 5 W/m 8,4 km/h (2 Bft)
10.02.2015 08:14 4,4 C 3,3 C 98 % 1030,9 hPa 0,0 l/m 0 min 0 min 5 W/m 6,3 km/h (2 Bft)
10.02.2015 08:16 4,4 C 3,3 C 98 % 1030,9 hPa 0,0 l/m 0 min 0 min 6 W/m 4,2 km/h (1 Bft)
10.02.2015 08:18 4,4 C 3,3 C 98 % 1031,0 hPa 0,0 l/m 0 min 0 min 8 W/m 6,3 km/h (2 Bft)
10.02.2015 08:20 4,4 C 3,3 C 98 % 1031,0 hPa 0,0 l/m 0 min 0 min 10 W/m 8,4 km/h (2 Bft)
10.02.2015 08:22 4,4 C 3,3 C 98 % 1031,1 hPa 0,0 l/m 0 min 0 min 11 W/m 10,5 km/h (2 Bft)
10.02.2015 08:24 4,4 C 3,3 C 98 % 1031,1 hPa 0,0 l/m 0 min 0 min 11 W/m 8,4 km/h (2 Bft)
10.02.2015 08:26 4,4 C 3,3 C 98 % 1031,0 hPa 0,0 l/m 0 min 0 min 12 W/m 8,4 km/h (2 Bft)
10.02.2015 08:28 4,4 C 3,3 C 98 % 1031,1 hPa 0,0 l/m 0 min 0 min 14 W/m 10,5 km/h (2 Bft)
10.02.2015 08:30 4,4 C 3,3 C 98 % 1031,1 hPa 0,0 l/m 0 min 0 min 15 W/m 8,4 km/h (2 Bft)
10.02.2015 08:32 4,4 C 3,3 C 98 % 1031,1 hPa 0,0 l/m 0 min 0 min 16 W/m 10,5 km/h (2 Bft)
10.02.2015 08:34 4,4 C 3,3 C 98 % 1031,1 hPa 0,0 l/m 0 min 0 min 18 W/m 6,3 km/h (2 Bft)
10.02.2015 08:36 4,4 C 3,3 C 98 % 1031,1 hPa 0,0 l/m 0 min 0 min 22 W/m 8,4 km/h (2 Bft)
10.02.2015 08:38 4,4 C 3,3 C 98 % 1031,1 hPa 0,0 l/m 0 min 2 min 19 W/m 10,5 km/h (2 Bft)
10.02.2015 08:40 4,4 C 3,3 C 98 % 1031,1 hPa 0,0 l/m 0 min 2 min 24 W/m 8,4 km/h (2 Bft)
10.02.2015 08:42 4,4 C 3,3 C 98 % 1031,1 hPa 0,0 l/m 0 min 0 min 25 W/m 6,3 km/h (2 Bft)
10.02.2015 08:44 4,4 C 3,3 C 98 % 1031,1 hPa 0,0 l/m 0 min 0 min 22 W/m 8,4 km/h (2 Bft)
10.02.2015 08:46 4,5 C 3,3 C 98 % 1031,2 hPa 0,0 l/m 0 min 0 min 28 W/m 8,4 km/h (2 Bft)
10.02.2015 08:48 4,5 C 3,3 C 98 % 1031,2 hPa 0,0 l/m 0 min 0 min 31 W/m 8,4 km/h (2 Bft)
10.02.2015 08:50 4,5 C 3,3 C 98 % 1031,2 hPa 0,0 l/m 0 min 0 min 36 W/m 8,4 km/h (2 Bft)
10.02.2015 08:52 4,5 C 3,3 C 98 % 1031,2 hPa 0,0 l/m 0 min 0 min 35 W/m 8,4 km/h (2 Bft)
10.02.2015 08:54 4,5 C 3,3 C 98 % 1031,2 hPa 0,0 l/m 0 min 0 min 27 W/m 8,4 km/h (2 Bft)
10.02.2015 08:56 4,5 C 3,3 C 98 % 1031,2 hPa 0,0 l/m 0 min 0 min 25 W/m 6,3 km/h (2 Bft)
10.02.2015 08:58 4,5 C 3,3 C 98 % 1031,2 hPa 0,0 l/m 0 min 0 min 31 W/m 10,5 km/h (2 Bft)
10.02.2015 09:00 4,5 C 3,3 C 98 % 1031,2 hPa 0,0 l/m 0 min 0 min 38 W/m 10,5 km/h (2 Bft)
10.02.2015 09:02 4,5 C 3,3 C 98 % 1031,2 hPa 0,0 l/m 0 min 0 min 45 W/m 6,3 km/h (2 Bft)
10.02.2015 09:04 4,5 C 3,3 C 98 % 1031,2 hPa 0,0 l/m 0 min 0 min 45 W/m 8,4 km/h (2 Bft)
10.02.2015 09:06 4,5 C 3,9 C 98 % 1031,2 hPa 0,0 l/m 0 min 0 min 46 W/m 6,3 km/h (2 Bft)
10.02.2015 09:08 4,5 C 3,9 C 98 % 1031,2 hPa 0,0 l/m 0 min 0 min 55 W/m 4,2 km/h (1 Bft)
10.02.2015 09:10 4,6 C 3,9 C 98 % 1031,2 hPa 0,0 l/m 0 min 0 min 55 W/m 6,3 km/h (2 Bft)
10.02.2015 09:12 4,6 C 3,9 C 98 % 1031,2 hPa 0,0 l/m 0 min 0 min 43 W/m 6,3 km/h (2 Bft)
10.02.2015 09:14 4,6 C 3,9 C 98 % 1031,2 hPa 0,0 l/m 0 min 0 min 36 W/m 6,3 km/h (2 Bft)
10.02.2015 09:16 4,6 C 3,9 C 98 % 1031,2 hPa 0,0 l/m 0 min 0 min 37 W/m 6,3 km/h (2 Bft)
10.02.2015 09:18 4,6 C 3,9 C 98 % 1031,3 hPa 0,0 l/m 0 min 0 min 43 W/m 8,4 km/h (2 Bft)
10.02.2015 09:20 4,6 C 3,9 C 98 % 1031,3 hPa 0,0 l/m 0 min 0 min 47 W/m 8,4 km/h (2 Bft)
10.02.2015 09:22 4,6 C 3,9 C 98 % 1031,2 hPa 0,0 l/m 0 min 0 min 50 W/m 8,4 km/h (2 Bft)
10.02.2015 09:24 4,7 C 3,9 C 98 % 1031,2 hPa 0,0 l/m 0 min 0 min 54 W/m 8,4 km/h (2 Bft)
10.02.2015 09:26 4,7 C 3,9 C 98 % 1031,2 hPa 0,0 l/m 0 min 0 min 63 W/m 6,3 km/h (2 Bft)
10.02.2015 09:28 4,7 C 3,9 C 98 % 1031,2 hPa 0,0 l/m 0 min 0 min 51 W/m 8,4 km/h (2 Bft)
10.02.2015 09:30 4,7 C 3,9 C 98 % 1031,2 hPa 0,0 l/m 0 min 0 min 48 W/m 8,4 km/h (2 Bft)
10.02.2015 09:32 4,7 C 3,9 C 98 % 1031,3 hPa 0,0 l/m 0 min 2 min 39 W/m 6,3 km/h (2 Bft)
10.02.2015 09:34 4,7 C 3,9 C 98 % 1031,3 hPa 0,0 l/m 0 min 0 min 39 W/m 6,3 km/h (2 Bft)
10.02.2015 09:36 4,7 C 3,9 C 98 % 1031,3 hPa 0,0 l/m 0 min 0 min 50 W/m 6,3 km/h (2 Bft)
10.02.2015 09:38 4,7 C 3,9 C 98 % 1031,3 hPa 0,0 l/m 0 min 0 min 68 W/m 4,2 km/h (1 Bft)
10.02.2015 09:40 4,8 C 3,9 C 98 % 1031,3 hPa 0,0 l/m 0 min 0 min 73 W/m 6,3 km/h (2 Bft)
10.02.2015 09:42 4,8 C 3,9 C 98 % 1031,3 hPa 0,0 l/m 0 min 0 min 65 W/m 4,2 km/h (1 Bft)
10.02.2015 09:44 4,8 C 3,9 C 98 % 1031,3 hPa 0,0 l/m 0 min 0 min 53 W/m 6,3 km/h (2 Bft)
10.02.2015 09:46 4,8 C 3,9 C 98 % 1031,3 hPa 0,0 l/m 0 min 0 min 54 W/m 4,2 km/h (1 Bft)
10.02.2015 09:48 4,8 C 3,9 C 98 % 1031,4 hPa 0,0 l/m 0 min 0 min 43 W/m 8,4 km/h (2 Bft)
10.02.2015 09:50 4,8 C 3,9 C 98 % 1031,3 hPa 0,0 l/m 0 min 2 min 40 W/m 8,4 km/h (2 Bft)
10.02.2015 09:52 4,8 C 3,9 C 98 % 1031,4 hPa 0,0 l/m 0 min 2 min 35 W/m 6,3 km/h (2 Bft)
10.02.2015 09:54 4,8 C 3,9 C 98 % 1031,4 hPa 0,0 l/m 0 min 2 min 30 W/m 8,4 km/h (2 Bft)
10.02.2015 09:56 4,8 C 3,9 C 98 % 1031,4 hPa 0,0 l/m 0 min 2 min 27 W/m 6,3 km/h (2 Bft)
10.02.2015 09:58 4,8 C 3,9 C 98 % 1031,4 hPa 0,0 l/m 0 min 2 min 26 W/m 8,4 km/h (2 Bft)
10.02.2015 10:00 4,8 C 3,9 C 98 % 1031,4 hPa 0,0 l/m 0 min 2 min 33 W/m 8,4 km/h (2 Bft)
10.02.2015 10:02 4,8 C 3,9 C 98 % 1031,4 hPa 0,0 l/m 0 min 2 min 44 W/m 8,4 km/h (2 Bft)
10.02.2015 10:04 4,8 C 3,9 C 98 % 1031,5 hPa 0,0 l/m 0 min 2 min 59 W/m 6,3 km/h (2 Bft)
10.02.2015 10:06 4,8 C 3,9 C 98 % 1031,5 hPa 0,0 l/m 0 min 2 min 73 W/m 10,5 km/h (2 Bft)
10.02.2015 10:08 4,9 C 3,9 C 98 % 1031,5 hPa 0,0 l/m 0 min 2 min 73 W/m 8,4 km/h (2 Bft)
10.02.2015 10:10 4,9 C 3,9 C 98 % 1031,5 hPa 0,0 l/m 0 min 2 min 64 W/m 10,5 km/h (2 Bft)
10.02.2015 10:12 4,9 C 3,9 C 98 % 1031,5 hPa 0,0 l/m 0 min 2 min 62 W/m 8,4 km/h (2 Bft)
10.02.2015 10:14 4,9 C 3,9 C 98 % 1031,5 hPa 0,0 l/m 0 min 2 min 62 W/m 8,4 km/h (2 Bft)
10.02.2015 10:16 4,9 C 3,9 C 98 % 1031,5 hPa 0,0 l/m 0 min 2 min 82 W/m 12,6 km/h (3 Bft)
10.02.2015 10:18 4,9 C 4,4 C 98 % 1031,6 hPa 0,0 l/m 0 min 2 min 93 W/m 6,3 km/h (2 Bft)
10.02.2015 10:20 4,9 C 4,4 C 98 % 1031,6 hPa 0,0 l/m 0 min 2 min 84 W/m 12,6 km/h (3 Bft)
10.02.2015 10:22 4,9 C 4,4 C 98 % 1031,5 hPa 0,0 l/m 0 min 2 min 75 W/m 8,4 km/h (2 Bft)
10.02.2015 10:24 4,9 C 4,4 C 98 % 1031,5 hPa 0,0 l/m 0 min 2 min 72 W/m 10,5 km/h (2 Bft)
10.02.2015 10:26 4,9 C 4,4 C 98 % 1031,6 hPa 0,0 l/m 0 min 2 min 67 W/m 10,5 km/h (2 Bft)
10.02.2015 10:28 4,9 C 4,4 C 98 % 1031,6 hPa 0,0 l/m 0 min 0 min 76 W/m 12,6 km/h (3 Bft)
10.02.2015 10:30 4,9 C 4,4 C 98 % 1031,6 hPa 0,0 l/m 0 min 0 min 80 W/m 16,7 km/h (3 Bft)
10.02.2015 10:32 4,9 C 4,4 C 98 % 1031,6 hPa 0,0 l/m 0 min 0 min 82 W/m 16,7 km/h (3 Bft)
10.02.2015 10:34 5,0 C 4,4 C 98 % 1031,6 hPa 0,0 l/m 0 min 0 min 86 W/m 10,5 km/h (2 Bft)
10.02.2015 10:36 5,0 C 4,4 C 98 % 1031,6 hPa 0,0 l/m 0 min 0 min 94 W/m 12,6 km/h (3 Bft)
10.02.2015 10:38 5,0 C 4,4 C 98 % 1031,6 hPa 0,0 l/m 0 min 0 min 100 W/m 14,6 km/h (3 Bft)
10.02.2015 10:40 5,0 C 4,4 C 98 % 1031,6 hPa 0,0 l/m 0 min 0 min 117 W/m 8,4 km/h (2 Bft)
10.02.2015 10:42 5,0 C 4,4 C 98 % 1031,6 hPa 0,0 l/m 0 min 0 min 133 W/m 12,6 km/h (3 Bft)
10.02.2015 10:44 5,0 C 4,4 C 98 % 1031,6 hPa 0,0 l/m 0 min 0 min 119 W/m 12,6 km/h (3 Bft)
10.02.2015 10:46 5,1 C 4,4 C 98 % 1031,7 hPa 0,0 l/m 0 min 0 min 89 W/m 12,6 km/h (3 Bft)
10.02.2015 10:48 5,1 C 4,4 C 98 % 1031,7 hPa 0,0 l/m 0 min 0 min 70 W/m 12,6 km/h (3 Bft)
10.02.2015 10:50 5,1 C 4,4 C 98 % 1031,7 hPa 0,0 l/m 0 min 0 min 76 W/m 12,6 km/h (3 Bft)
10.02.2015 10:52 5,1 C 4,4 C 98 % 1031,7 hPa 0,0 l/m 0 min 0 min 86 W/m 10,5 km/h (2 Bft)
10.02.2015 10:54 5,1 C 4,4 C 98 % 1031,7 hPa 0,0 l/m 0 min 0 min 90 W/m 8,4 km/h (2 Bft)
10.02.2015 10:56 5,1 C 4,4 C 98 % 1031,7 hPa 0,0 l/m 0 min 0 min 95 W/m 10,5 km/h (2 Bft)
10.02.2015 10:58 5,1 C 4,4 C 98 % 1031,7 hPa 0,0 l/m 0 min 0 min 104 W/m 8,4 km/h (2 Bft)
10.02.2015 11:00 5,1 C 4,4 C 98 % 1031,6 hPa 0,0 l/m 0 min 0 min 116 W/m 8,4 km/h (2 Bft)
10.02.2015 11:02 5,1 C 4,4 C 98 % 1031,6 hPa 0,0 l/m 0 min 0 min 130 W/m 10,5 km/h (2 Bft)
10.02.2015 11:04 5,1 C 4,4 C 98 % 1031,6 hPa 0,0 l/m 0 min 0 min 130 W/m 8,4 km/h (2 Bft)
10.02.2015 11:06 5,1 C 4,4 C 98 % 1031,7 hPa 0,0 l/m 0 min 0 min 140 W/m 12,6 km/h (3 Bft)
10.02.2015 11:08 5,2 C 4,4 C 98 % 1031,7 hPa 0,0 l/m 0 min 0 min 120 W/m 12,6 km/h (3 Bft)
10.02.2015 11:10 5,2 C 4,4 C 98 % 1031,7 hPa 0,0 l/m 0 min 0 min 122 W/m 12,6 km/h (3 Bft)
10.02.2015 11:12 5,2 C 4,4 C 98 % 1031,7 hPa 0,0 l/m 0 min 0 min 91 W/m 6,3 km/h (2 Bft)
10.02.2015 11:14 5,2 C 4,4 C 98 % 1031,7 hPa 0,0 l/m 0 min 0 min 63 W/m 10,5 km/h (2 Bft)
10.02.2015 11:16 5,2 C 4,4 C 98 % 1031,7 hPa 0,0 l/m 0 min 0 min 56 W/m 10,5 km/h (2 Bft)
10.02.2015 11:18 5,2 C 4,4 C 98 % 1031,7 hPa 0,0 l/m 0 min 2 min 45 W/m 10,5 km/h (2 Bft)
10.02.2015 11:20 5,2 C 4,4 C 98 % 1031,7 hPa 0,0 l/m 0 min 2 min 46 W/m 10,5 km/h (2 Bft)
10.02.2015 11:22 5,2 C 4,4 C 98 % 1031,7 hPa 0,0 l/m 0 min 2 min 40 W/m 6,3 km/h (2 Bft)
10.02.2015 11:24 5,2 C 4,4 C 98 % 1031,8 hPa 0,0 l/m 0 min 2 min 45 W/m 8,4 km/h (2 Bft)
10.02.2015 11:26 5,2 C 3,9 C 98 % 1031,8 hPa 0,0 l/m 0 min 0 min 45 W/m 6,3 km/h (2 Bft)
10.02.2015 11:28 5,2 C 3,9 C 98 % 1031,7 hPa 0,0 l/m 0 min 0 min 48 W/m 8,4 km/h (2 Bft)
10.02.2015 11:30 5,2 C 3,9 C 98 % 1031,8 hPa 0,0 l/m 0 min 0 min 61 W/m 8,4 km/h (2 Bft)
10.02.2015 11:32 5,2 C 3,9 C 98 % 1031,7 hPa 0,0 l/m 0 min 0 min 72 W/m 10,5 km/h (2 Bft)
10.02.2015 11:34 5,2 C 4,4 C 98 % 1031,7 hPa 0,0 l/m 0 min 0 min 83 W/m 8,4 km/h (2 Bft)
10.02.2015 11:36 5,2 C 4,4 C 98 % 1031,7 hPa 0,0 l/m 0 min 0 min 97 W/m 8,4 km/h (2 Bft)
10.02.2015 11:38 5,2 C 4,4 C 98 % 1031,7 hPa 0,0 l/m 0 min 0 min 108 W/m 10,5 km/h (2 Bft)
10.02.2015 11:40 5,2 C 4,4 C 98 % 1031,8 hPa 0,0 l/m 0 min 0 min 123 W/m 10,5 km/h (2 Bft)
10.02.2015 11:42 5,2 C 4,4 C 98 % 1031,7 hPa 0,0 l/m 0 min 0 min 142 W/m 8,4 km/h (2 Bft)
10.02.2015 11:44 5,2 C 4,4 C 98 % 1031,7 hPa 0,0 l/m 0 min 0 min 153 W/m 8,4 km/h (2 Bft)
10.02.2015 11:46 5,2 C 4,4 C 98 % 1031,7 hPa 0,0 l/m 0 min 0 min 170 W/m 8,4 km/h (2 Bft)
10.02.2015 11:48 5,2 C 4,4 C 98 % 1031,7 hPa 0,0 l/m 2 min 0 min 210 W/m 8,4 km/h (2 Bft)
10.02.2015 11:50 5,3 C 4,4 C 98 % 1031,7 hPa 0,0 l/m 2 min 0 min 242 W/m 8,4 km/h (2 Bft)
10.02.2015 11:52 5,3 C 5,0 C 98 % 1031,7 hPa 0,0 l/m 2 min 0 min 277 W/m 10,5 km/h (2 Bft)
10.02.2015 11:54 5,3 C 5,0 C 98 % 1031,7 hPa 0,0 l/m 2 min 0 min 260 W/m 10,5 km/h (2 Bft)
10.02.2015 11:56 5,3 C 5,0 C 98 % 1031,7 hPa 0,0 l/m 0 min 0 min 192 W/m 8,4 km/h (2 Bft)
10.02.2015 11:58 5,4 C 5,0 C 98 % 1031,6 hPa 0,0 l/m 0 min 0 min 166 W/m 6,3 km/h (2 Bft)
10.02.2015 12:00 5,4 C 5,0 C 98 % 1031,5 hPa 0,0 l/m 0 min 0 min 141 W/m 10,5 km/h (2 Bft)
10.02.2015 12:02 5,4 C 5,0 C 98 % 1031,4 hPa 0,0 l/m 0 min 0 min 111 W/m 12,6 km/h (3 Bft)
10.02.2015 12:06 5,5 C 5,0 C 98 % 1031,5 hPa 0,0 l/m 0 min 0 min 99 W/m 12,6 km/h (3 Bft)
10.02.2015 12:08 5,5 C 4,4 C 98 % 1031,5 hPa 0,0 l/m 0 min 0 min 92 W/m 14,6 km/h (3 Bft)
10.02.2015 12:10 5,5 C 4,4 C 98 % 1031,6 hPa 0,0 l/m 0 min 0 min 87 W/m 14,6 km/h (3 Bft)
10.02.2015 12:12 5,5 C 4,4 C 98 % 1031,5 hPa 0,0 l/m 0 min 0 min 90 W/m 12,6 km/h (3 Bft)
10.02.2015 12:14 5,5 C 4,4 C 98 % 1031,6 hPa 0,0 l/m 0 min 0 min 78 W/m 16,7 km/h (3 Bft)
10.02.2015 12:16 5,5 C 4,4 C 98 % 1031,5 hPa 0,0 l/m 0 min 0 min 78 W/m 12,6 km/h (3 Bft)
10.02.2015 12:18 5,5 C 4,4 C 98 % 1031,5 hPa 0,0 l/m 0 min 0 min 85 W/m 14,6 km/h (3 Bft)
10.02.2015 12:20 5,5 C 4,4 C 98 % 1031,5 hPa 0,0 l/m 0 min 0 min 86 W/m 14,6 km/h (3 Bft)
10.02.2015 12:22 5,4 C 4,4 C 98 % 1031,5 hPa 0,0 l/m 0 min 0 min 78 W/m 14,6 km/h (3 Bft)
10.02.2015 12:24 5,4 C 4,4 C 98 % 1031,5 hPa 0,0 l/m 0 min 0 min 67 W/m 12,6 km/h (3 Bft)
10.02.2015 12:26 5,4 C 4,4 C 98 % 1031,5 hPa 0,0 l/m 0 min 0 min 61 W/m 12,6 km/h (3 Bft)
10.02.2015 12:28 5,4 C 4,4 C 98 % 1031,4 hPa 0,0 l/m 0 min 0 min 58 W/m 14,6 km/h (3 Bft)
10.02.2015 12:30 5,4 C 4,4 C 98 % 1031,4 hPa 0,0 l/m 0 min 0 min 64 W/m 12,6 km/h (3 Bft)
10.02.2015 12:32 5,3 C 4,4 C 98 % 1031,4 hPa 0,0 l/m 0 min 0 min 76 W/m 10,5 km/h (2 Bft)
10.02.2015 12:34 5,3 C 4,4 C 98 % 1031,4 hPa 0,0 l/m 0 min 0 min 83 W/m 10,5 km/h (2 Bft)
10.02.2015 12:36 5,3 C 4,4 C 98 % 1031,4 hPa 0,0 l/m 0 min 0 min 81 W/m 10,5 km/h (2 Bft)
10.02.2015 12:38 5,3 C 4,4 C 98 % 1031,4 hPa 0,0 l/m 0 min 0 min 77 W/m 8,4 km/h (2 Bft)
10.02.2015 12:40 5,3 C 4,4 C 98 % 1031,4 hPa 0,0 l/m 0 min 0 min 76 W/m 8,4 km/h (2 Bft)
10.02.2015 12:42 5,3 C 4,4 C 98 % 1031,4 hPa 0,0 l/m 0 min 0 min 75 W/m 10,5 km/h (2 Bft)
10.02.2015 12:44 5,3 C 4,4 C 98 % 1031,4 hPa 0,0 l/m 0 min 0 min 74 W/m 8,4 km/h (2 Bft)
10.02.2015 12:46 5,4 C 4,4 C 98 % 1031,4 hPa 0,0 l/m 0 min 0 min 72 W/m 10,5 km/h (2 Bft)
10.02.2015 12:48 5,4 C 4,4 C 98 % 1031,4 hPa 0,0 l/m 0 min 0 min 72 W/m 12,6 km/h (3 Bft)
10.02.2015 12:50 5,4 C 4,4 C 98 % 1031,4 hPa 0,0 l/m 0 min 0 min 72 W/m 10,5 km/h (2 Bft)
10.02.2015 12:52 5,4 C 4,4 C 98 % 1031,4 hPa 0,0 l/m 0 min 0 min 71 W/m 8,4 km/h (2 Bft)
10.02.2015 12:54 5,4 C 4,4 C 98 % 1031,4 hPa 0,0 l/m 0 min 0 min 69 W/m 6,3 km/h (2 Bft)
10.02.2015 12:56 5,4 C 4,4 C 98 % 1031,4 hPa 0,0 l/m 0 min 0 min 67 W/m 8,4 km/h (2 Bft)
10.02.2015 12:58 5,4 C 4,4 C 98 % 1031,4 hPa 0,0 l/m 0 min 0 min 67 W/m 6,3 km/h (2 Bft)
10.02.2015 13:00 5,4 C 4,4 C 98 % 1031,3 hPa 0,0 l/m 0 min 0 min 74 W/m 6,3 km/h (2 Bft)
10.02.2015 13:02 5,4 C 4,4 C 98 % 1031,3 hPa 0,0 l/m 0 min 0 min 78 W/m 8,4 km/h (2 Bft)
10.02.2015 13:04 5,4 C 4,4 C 98 % 1031,4 hPa 0,0 l/m 0 min 0 min 82 W/m 6,3 km/h (2 Bft)
10.02.2015 13:06 5,4 C 4,4 C 98 % 1031,4 hPa 0,0 l/m 0 min 0 min 84 W/m 8,4 km/h (2 Bft)
10.02.2015 13:08 5,4 C 4,4 C 98 % 1031,4 hPa 0,0 l/m 0 min 0 min 83 W/m 4,2 km/h (1 Bft)
10.02.2015 13:10 5,4 C 5,0 C 98 % 1031,4 hPa 0,0 l/m 0 min 0 min 83 W/m 4,2 km/h (1 Bft)
10.02.2015 13:12 5,5 C 5,0 C 98 % 1031,4 hPa 0,0 l/m 0 min 0 min 83 W/m 8,4 km/h (2 Bft)
10.02.2015 13:14 5,5 C 5,0 C 98 % 1031,3 hPa 0,0 l/m 0 min 0 min 79 W/m 10,5 km/h (2 Bft)
10.02.2015 13:16 5,5 C 4,4 C 98 % 1031,3 hPa 0,0 l/m 0 min 0 min 77 W/m 8,4 km/h (2 Bft)
10.02.2015 13:18 5,5 C 4,4 C 98 % 1031,2 hPa 0,0 l/m 0 min 0 min 77 W/m 10,5 km/h (2 Bft)
10.02.2015 13:20 5,5 C 4,4 C 98 % 1031,2 hPa 0,0 l/m 0 min 0 min 76 W/m 12,6 km/h (3 Bft)
10.02.2015 13:22 5,5 C 4,4 C 98 % 1031,2 hPa 0,0 l/m 0 min 0 min 76 W/m 12,6 km/h (3 Bft)
10.02.2015 13:24 5,4 C 4,4 C 98 % 1031,2 hPa 0,0 l/m 0 min 0 min 73 W/m 8,4 km/h (2 Bft)
10.02.2015 13:26 5,4 C 4,4 C 98 % 1031,1 hPa 0,0 l/m 0 min 0 min 72 W/m 10,5 km/h (2 Bft)
10.02.2015 13:28 5,4 C 4,4 C 98 % 1031,1 hPa 0,0 l/m 0 min 0 min 69 W/m 12,6 km/h (3 Bft)
10.02.2015 13:30 5,4 C 4,4 C 97 % 1031,1 hPa 0,0 l/m 0 min 0 min 65 W/m 12,6 km/h (3 Bft)
10.02.2015 13:32 5,4 C 4,4 C 97 % 1031,1 hPa 0,0 l/m 0 min 0 min 65 W/m 10,5 km/h (2 Bft)
10.02.2015 13:34 5,4 C 4,4 C 97 % 1031,0 hPa 0,0 l/m 0 min 0 min 65 W/m 10,5 km/h (2 Bft)
10.02.2015 13:36 5,5 C 4,4 C 97 % 1031,1 hPa 0,0 l/m 0 min 0 min 65 W/m 10,5 km/h (2 Bft)
10.02.2015 13:38 5,5 C 4,4 C 97 % 1031,1 hPa 0,0 l/m 0 min 0 min 67 W/m 8,4 km/h (2 Bft)
10.02.2015 13:40 5,5 C 4,4 C 97 % 1031,1 hPa 0,0 l/m 0 min 0 min 67 W/m 10,5 km/h (2 Bft)
10.02.2015 13:42 5,6 C 4,4 C 97 % 1031,1 hPa 0,0 l/m 0 min 0 min 66 W/m 10,5 km/h (2 Bft)
10.02.2015 13:44 5,6 C 4,4 C 97 % 1031,0 hPa 0,0 l/m 0 min 0 min 66 W/m 8,4 km/h (2 Bft)
10.02.2015 13:46 5,6 C 4,4 C 97 % 1031,0 hPa 0,0 l/m 0 min 0 min 63 W/m 6,3 km/h (2 Bft)
10.02.2015 13:48 5,6 C 4,4 C 97 % 1031,0 hPa 0,0 l/m 0 min 0 min 60 W/m 8,4 km/h (2 Bft)
10.02.2015 13:50 5,6 C 4,4 C 97 % 1031,0 hPa 0,0 l/m 0 min 0 min 58 W/m 8,4 km/h (2 Bft)
10.02.2015 13:52 5,7 C 4,4 C 97 % 1031,0 hPa 0,0 l/m 0 min 0 min 58 W/m 10,5 km/h (2 Bft)
10.02.2015 13:54 5,7 C 4,4 C 97 % 1031,0 hPa 0,0 l/m 0 min 0 min 58 W/m 8,4 km/h (2 Bft)
10.02.2015 13:56 5,7 C 4,4 C 96 % 1030,9 hPa 0,0 l/m 0 min 0 min 58 W/m 8,4 km/h (2 Bft)
10.02.2015 13:58 5,7 C 4,4 C 96 % 1030,9 hPa 0,0 l/m 0 min 0 min 58 W/m 10,5 km/h (2 Bft)
10.02.2015 14:00 5,7 C 4,4 C 96 % 1030,9 hPa 0,0 l/m 0 min 0 min 60 W/m 10,5 km/h (2 Bft)
10.02.2015 14:02 5,7 C 4,4 C 96 % 1030,9 hPa 0,0 l/m 0 min 0 min 63 W/m 10,5 km/h (2 Bft)
10.02.2015 14:04 5,7 C 4,4 C 96 % 1030,9 hPa 0,0 l/m 0 min 0 min 63 W/m 10,5 km/h (2 Bft)
10.02.2015 14:06 5,8 C 4,4 C 96 % 1030,8 hPa 0,0 l/m 0 min 0 min 62 W/m 8,4 km/h (2 Bft)
10.02.2015 14:08 5,8 C 4,4 C 96 % 1030,8 hPa 0,0 l/m 0 min 0 min 62 W/m 4,2 km/h (1 Bft)
10.02.2015 14:10 5,8 C 4,4 C 96 % 1030,8 hPa 0,0 l/m 0 min 0 min 63 W/m 6,3 km/h (2 Bft)
10.02.2015 14:12 5,8 C 4,4 C 96 % 1030,8 hPa 0,0 l/m 0 min 0 min 61 W/m 8,4 km/h (2 Bft)
10.02.2015 14:14 5,8 C 4,4 C 96 % 1030,8 hPa 0,0 l/m 0 min 0 min 60 W/m 8,4 km/h (2 Bft)
10.02.2015 14:16 5,8 C 4,4 C 96 % 1030,8 hPa 0,0 l/m 0 min 0 min 59 W/m 8,4 km/h (2 Bft)
10.02.2015 14:18 5,8 C 4,4 C 96 % 1030,8 hPa 0,0 l/m 0 min 0 min 56 W/m 8,4 km/h (2 Bft)
10.02.2015 14:20 5,8 C 4,4 C 96 % 1030,8 hPa 0,0 l/m 0 min 0 min 53 W/m 8,4 km/h (2 Bft)
10.02.2015 14:22 5,8 C 4,4 C 95 % 1030,9 hPa 0,0 l/m 0 min 0 min 50 W/m 10,5 km/h (2 Bft)
10.02.2015 14:24 5,8 C 4,4 C 95 % 1030,9 hPa 0,0 l/m 0 min 0 min 47 W/m 8,4 km/h (2 Bft)
10.02.2015 14:26 5,8 C 4,4 C 95 % 1030,9 hPa 0,0 l/m 0 min 0 min 47 W/m 8,4 km/h (2 Bft)
10.02.2015 14:28 5,8 C 4,4 C 95 % 1030,9 hPa 0,0 l/m 0 min 0 min 47 W/m 8,4 km/h (2 Bft)
10.02.2015 14:30 5,8 C 4,4 C 95 % 1030,9 hPa 0,0 l/m 0 min 0 min 51 W/m 6,3 km/h (2 Bft)
10.02.2015 14:32 5,8 C 4,4 C 95 % 1030,9 hPa 0,0 l/m 0 min 0 min 56 W/m 4,2 km/h (1 Bft)
10.02.2015 14:34 5,8 C 4,4 C 95 % 1030,8 hPa 0,0 l/m 0 min 0 min 61 W/m 6,3 km/h (2 Bft)
10.02.2015 14:36 5,8 C 4,4 C 95 % 1030,8 hPa 0,0 l/m 0 min 0 min 67 W/m 6,3 km/h (2 Bft)
10.02.2015 14:38 5,8 C 4,4 C 95 % 1030,7 hPa 0,0 l/m 0 min 0 min 75 W/m 6,3 km/h (2 Bft)
10.02.2015 14:40 5,8 C 5,0 C 95 % 1030,8 hPa 0,0 l/m 0 min 0 min 82 W/m 4,2 km/h (1 Bft)
10.02.2015 14:42 5,8 C 5,0 C 95 % 1030,7 hPa 0,0 l/m 0 min 0 min 85 W/m 6,3 km/h (2 Bft)
10.02.2015 14:44 5,8 C 5,0 C 95 % 1030,8 hPa 0,0 l/m 0 min 0 min 77 W/m 6,3 km/h (2 Bft)
10.02.2015 14:46 5,8 C 5,0 C 95 % 1030,7 hPa 0,0 l/m 0 min 0 min 72 W/m 6,3 km/h (2 Bft)
10.02.2015 14:48 5,8 C 5,0 C 95 % 1030,8 hPa 0,0 l/m 0 min 0 min 68 W/m 10,5 km/h (2 Bft)
10.02.2015 14:50 5,8 C 5,0 C 95 % 1030,8 hPa 0,0 l/m 0 min 0 min 67 W/m 8,4 km/h (2 Bft)
10.02.2015 14:52 5,8 C 4,4 C 95 % 1030,7 hPa 0,0 l/m 0 min 0 min 63 W/m 6,3 km/h (2 Bft)
10.02.2015 14:54 5,8 C 4,4 C 95 % 1030,7 hPa 0,0 l/m 0 min 0 min 57 W/m 6,3 km/h (2 Bft)
10.02.2015 14:56 5,8 C 4,4 C 94 % 1030,8 hPa 0,0 l/m 0 min 0 min 56 W/m 8,4 km/h (2 Bft)
10.02.2015 14:58 5,8 C 4,4 C 94 % 1030,7 hPa 0,0 l/m 0 min 0 min 56 W/m 10,5 km/h (2 Bft)
10.02.2015 15:00 5,9 C 4,4 C 94 % 1030,7 hPa 0,0 l/m 0 min 0 min 57 W/m 8,4 km/h (2 Bft)
10.02.2015 15:02 5,9 C 4,4 C 94 % 1030,7 hPa 0,0 l/m 0 min 0 min 56 W/m 8,4 km/h (2 Bft)
10.02.2015 15:04 5,9 C 4,4 C 94 % 1030,7 hPa 0,0 l/m 0 min 0 min 56 W/m 10,5 km/h (2 Bft)
10.02.2015 15:06 5,9 C 4,4 C 94 % 1030,8 hPa 0,0 l/m 0 min 0 min 56 W/m 10,5 km/h (2 Bft)
10.02.2015 15:08 5,9 C 5,0 C 94 % 1030,8 hPa 0,0 l/m 0 min 0 min 58 W/m 10,5 km/h (2 Bft)
10.02.2015 15:10 5,9 C 4,4 C 94 % 1030,9 hPa 0,0 l/m 0 min 0 min 56 W/m 12,6 km/h (3 Bft)
10.02.2015 15:12 5,9 C 4,4 C 94 % 1030,8 hPa 0,0 l/m 0 min 0 min 55 W/m 14,6 km/h (3 Bft)
10.02.2015 15:14 5,9 C 4,4 C 94 % 1030,8 hPa 0,0 l/m 0 min 0 min 54 W/m 14,6 km/h (3 Bft)
10.02.2015 15:16 5,9 C 4,4 C 94 % 1030,8 hPa 0,0 l/m 0 min 0 min 53 W/m 10,5 km/h (2 Bft)
10.02.2015 15:18 5,9 C 4,4 C 94 % 1030,8 hPa 0,0 l/m 0 min 0 min 54 W/m 10,5 km/h (2 Bft)
10.02.2015 15:20 5,9 C 4,4 C 94 % 1030,8 hPa 0,0 l/m 0 min 0 min 54 W/m 10,5 km/h (2 Bft)
10.02.2015 15:22 5,9 C 4,4 C 94 % 1030,8 hPa 0,0 l/m 0 min 0 min 53 W/m 8,4 km/h (2 Bft)
10.02.2015 15:24 5,9 C 4,4 C 94 % 1030,8 hPa 0,0 l/m 0 min 0 min 51 W/m 10,5 km/h (2 Bft)
10.02.2015 15:26 5,9 C 4,4 C 94 % 1030,8 hPa 0,0 l/m 0 min 0 min 48 W/m 6,3 km/h (2 Bft)
10.02.2015 15:28 5,9 C 4,4 C 94 % 1030,8 hPa 0,0 l/m 0 min 0 min 47 W/m 8,4 km/h (2 Bft)
10.02.2015 15:30 5,9 C 4,4 C 94 % 1030,8 hPa 0,0 l/m 0 min 0 min 50 W/m 8,4 km/h (2 Bft)
10.02.2015 15:32 5,9 C 4,4 C 93 % 1030,7 hPa 0,0 l/m 0 min 0 min 58 W/m 6,3 km/h (2 Bft)
10.02.2015 15:34 5,9 C 5,0 C 93 % 1030,7 hPa 0,0 l/m 0 min 0 min 65 W/m 8,4 km/h (2 Bft)
10.02.2015 15:36 5,9 C 5,0 C 93 % 1030,7 hPa 0,0 l/m 0 min 0 min 69 W/m 8,4 km/h (2 Bft)
10.02.2015 15:38 5,9 C 5,0 C 93 % 1030,6 hPa 0,0 l/m 0 min 0 min 68 W/m 10,5 km/h (2 Bft)
10.02.2015 15:40 6,0 C 5,0 C 93 % 1030,6 hPa 0,0 l/m 0 min 0 min 63 W/m 10,5 km/h (2 Bft)
10.02.2015 15:42 6,0 C 5,0 C 93 % 1030,7 hPa 0,0 l/m 0 min 0 min 58 W/m 10,5 km/h (2 Bft)
10.02.2015 15:44 6,0 C 5,0 C 93 % 1030,7 hPa 0,0 l/m 0 min 0 min 54 W/m 10,5 km/h (2 Bft)
10.02.2015 15:46 6,0 C 4,4 C 93 % 1030,7 hPa 0,0 l/m 0 min 0 min 49 W/m 10,5 km/h (2 Bft)
10.02.2015 15:48 6,0 C 4,4 C 93 % 1030,7 hPa 0,0 l/m 0 min 0 min 47 W/m 8,4 km/h (2 Bft)
10.02.2015 15:50 6,0 C 4,4 C 93 % 1030,7 hPa 0,0 l/m 0 min 0 min 46 W/m 10,5 km/h (2 Bft)
10.02.2015 15:52 6,0 C 4,4 C 93 % 1030,7 hPa 0,0 l/m 0 min 0 min 44 W/m 6,3 km/h (2 Bft)
10.02.2015 15:54 6,0 C 4,4 C 93 % 1030,6 hPa 0,0 l/m 0 min 0 min 42 W/m 6,3 km/h (2 Bft)
10.02.2015 15:56 6,0 C 4,4 C 93 % 1030,6 hPa 0,0 l/m 0 min 0 min 44 W/m 10,5 km/h (2 Bft)
10.02.2015 15:58 6,0 C 4,4 C 93 % 1030,7 hPa 0,0 l/m 0 min 0 min 48 W/m 10,5 km/h (2 Bft)
10.02.2015 16:00 6,0 C 4,4 C 93 % 1030,6 hPa 0,0 l/m 0 min 0 min 52 W/m 8,4 km/h (2 Bft)
10.02.2015 16:02 6,0 C 4,4 C 93 % 1030,7 hPa 0,0 l/m 0 min 0 min 50 W/m 8,4 km/h (2 Bft)
10.02.2015 16:04 6,0 C 4,4 C 93 % 1030,7 hPa 0,0 l/m 0 min 0 min 47 W/m 8,4 km/h (2 Bft)
10.02.2015 16:06 6,0 C 4,4 C 93 % 1030,6 hPa 0,0 l/m 0 min 0 min 43 W/m 8,4 km/h (2 Bft)
10.02.2015 16:08 6,0 C 4,4 C 93 % 1030,6 hPa 0,0 l/m 0 min 0 min 40 W/m 6,3 km/h (2 Bft)
10.02.2015 16:10 6,0 C 4,4 C 93 % 1030,6 hPa 0,0 l/m 0 min 0 min 38 W/m 6,3 km/h (2 Bft)
10.02.2015 16:12 6,0 C 4,4 C 93 % 1030,6 hPa 0,0 l/m 0 min 0 min 36 W/m 8,4 km/h (2 Bft)
10.02.2015 16:14 6,0 C 4,4 C 93 % 1030,6 hPa 0,0 l/m 0 min 0 min 33 W/m 8,4 km/h (2 Bft)
10.02.2015 16:16 6,0 C 4,4 C 93 % 1030,6 hPa 0,0 l/m 0 min 0 min 32 W/m 6,3 km/h (2 Bft)
10.02.2015 16:18 5,9 C 4,4 C 93 % 1030,6 hPa 0,0 l/m 0 min 0 min 30 W/m 6,3 km/h (2 Bft)
10.02.2015 16:20 5,9 C 4,4 C 93 % 1030,6 hPa 0,0 l/m 0 min 0 min 30 W/m 10,5 km/h (2 Bft)
10.02.2015 16:22 5,9 C 4,4 C 93 % 1030,6 hPa 0,0 l/m 0 min 0 min 29 W/m 6,3 km/h (2 Bft)
10.02.2015 16:24 5,9 C 4,4 C 93 % 1030,5 hPa 0,0 l/m 0 min 0 min 28 W/m 6,3 km/h (2 Bft)
10.02.2015 16:26 5,9 C 4,4 C 93 % 1030,6 hPa 0,0 l/m 0 min 0 min 26 W/m 6,3 km/h (2 Bft)
10.02.2015 16:28 5,9 C 4,4 C 93 % 1030,5 hPa 0,0 l/m 0 min 0 min 25 W/m 6,3 km/h (2 Bft)
10.02.2015 16:30 5,9 C 4,4 C 93 % 1030,5 hPa 0,0 l/m 0 min 0 min 24 W/m 8,4 km/h (2 Bft)
10.02.2015 16:32 5,9 C 4,4 C 94 % 1030,6 hPa 0,0 l/m 0 min 0 min 23 W/m 8,4 km/h (2 Bft)
10.02.2015 16:34 5,8 C 4,4 C 94 % 1030,6 hPa 0,0 l/m 0 min 0 min 22 W/m 8,4 km/h (2 Bft)
10.02.2015 16:36 5,8 C 4,4 C 94 % 1030,6 hPa 0,0 l/m 0 min 0 min 20 W/m 8,4 km/h (2 Bft)
10.02.2015 16:38 5,8 C 4,4 C 94 % 1030,6 hPa 0,0 l/m 0 min 0 min 19 W/m 8,4 km/h (2 Bft)
10.02.2015 16:40 5,8 C 4,4 C 94 % 1030,6 hPa 0,0 l/m 0 min 0 min 18 W/m 6,3 km/h (2 Bft)
10.02.2015 16:42 5,8 C 4,4 C 94 % 1030,6 hPa 0,0 l/m 0 min 0 min 17 W/m 8,4 km/h (2 Bft)
10.02.2015 16:44 5,8 C 4,4 C 94 % 1030,6 hPa 0,0 l/m 0 min 0 min 16 W/m 4,2 km/h (1 Bft)
10.02.2015 16:46 5,8 C 4,4 C 94 % 1030,6 hPa 0,0 l/m 0 min 0 min 15 W/m 4,2 km/h (1 Bft)
10.02.2015 16:48 5,8 C 4,4 C 94 % 1030,5 hPa 0,0 l/m 0 min 0 min 13 W/m 6,3 km/h (2 Bft)
10.02.2015 16:50 5,8 C 4,4 C 94 % 1030,6 hPa 0,0 l/m 0 min 0 min 12 W/m 8,4 km/h (2 Bft)
10.02.2015 16:52 5,7 C 4,4 C 94 % 1030,6 hPa 0,0 l/m 0 min 0 min 12 W/m 6,3 km/h (2 Bft)
10.02.2015 16:54 5,7 C 3,9 C 94 % 1030,5 hPa 0,0 l/m 0 min 0 min 12 W/m 8,4 km/h (2 Bft)
10.02.2015 16:56 5,7 C 3,9 C 94 % 1030,5 hPa 0,0 l/m 0 min 0 min 11 W/m 6,3 km/h (2 Bft)
10.02.2015 16:58 5,7 C 3,9 C 94 % 1030,5 hPa 0,0 l/m 0 min 0 min 11 W/m 8,4 km/h (2 Bft)
10.02.2015 17:00 5,7 C 3,9 C 94 % 1030,5 hPa 0,0 l/m 0 min 0 min 9 W/m 6,3 km/h (2 Bft)
10.02.2015 17:02 5,7 C 3,9 C 94 % 1030,5 hPa 0,0 l/m 0 min 0 min 9 W/m 8,4 km/h (2 Bft)
10.02.2015 17:04 5,7 C 3,9 C 94 % 1030,5 hPa 0,0 l/m 0 min 0 min 9 W/m 8,4 km/h (2 Bft)
10.02.2015 17:06 5,7 C 3,9 C 94 % 1030,4 hPa 0,0 l/m 0 min 0 min 8 W/m 6,3 km/h (2 Bft)
10.02.2015 17:08 5,7 C 3,9 C 94 % 1030,4 hPa 0,0 l/m 0 min 0 min 7 W/m 6,3 km/h (2 Bft)
10.02.2015 17:10 5,7 C 3,9 C 94 % 1030,4 hPa 0,0 l/m 0 min 0 min 7 W/m 8,4 km/h (2 Bft)
10.02.2015 17:12 5,7 C 3,9 C 94 % 1030,5 hPa 0,0 l/m 0 min 0 min 7 W/m 10,5 km/h (2 Bft)
10.02.2015 17:14 5,6 C 3,9 C 94 % 1030,5 hPa 0,0 l/m 0 min 0 min 5 W/m 8,4 km/h (2 Bft)
10.02.2015 17:16 5,6 C 3,9 C 94 % 1030,5 hPa 0,0 l/m 0 min 0 min 5 W/m 6,3 km/h (2 Bft)
10.02.2015 17:18 5,6 C 3,9 C 94 % 1030,4 hPa 0,0 l/m 0 min 0 min 5 W/m 8,4 km/h (2 Bft)
10.02.2015 17:20 5,6 C 3,9 C 94 % 1030,4 hPa 0,0 l/m 0 min 0 min 5 W/m 8,4 km/h (2 Bft)
10.02.2015 17:22 5,6 C 3,9 C 94 % 1030,4 hPa 0,0 l/m 0 min 0 min 4 W/m 6,3 km/h (2 Bft)
10.02.2015 17:24 5,6 C 3,9 C 94 % 1030,4 hPa 0,0 l/m 0 min 0 min 0 W/m 8,4 km/h (2 Bft)
10.02.2015 17:26 5,6 C 3,9 C 94 % 1030,4 hPa 0,0 l/m 0 min 0 min 0 W/m 8,4 km/h (2 Bft)
10.02.2015 17:28 5,6 C 3,9 C 94 % 1030,4 hPa 0,0 l/m 0 min 0 min 0 W/m 8,4 km/h (2 Bft)
10.02.2015 17:30 5,6 C 3,9 C 94 % 1030,4 hPa 0,0 l/m 0 min 0 min 0 W/m 6,3 km/h (2 Bft)
10.02.2015 17:32 5,6 C 3,9 C 94 % 1030,4 hPa 0,0 l/m 0 min 0 min 0 W/m 4,2 km/h (1 Bft)
10.02.2015 17:34 5,6 C 3,9 C 94 % 1030,4 hPa 0,0 l/m 0 min 0 min 0 W/m 4,2 km/h (1 Bft)
10.02.2015 17:36 5,5 C 3,9 C 94 % 1030,4 hPa 0,0 l/m 0 min 0 min 0 W/m 6,3 km/h (2 Bft)
10.02.2015 17:38 5,5 C 3,9 C 94 % 1030,4 hPa 0,0 l/m 0 min 0 min 0 W/m 6,3 km/h (2 Bft)
10.02.2015 17:40 5,5 C 3,9 C 94 % 1030,4 hPa 0,0 l/m 0 min 0 min 0 W/m 4,2 km/h (1 Bft)
10.02.2015 17:42 5,5 C 3,9 C 94 % 1030,4 hPa 0,0 l/m 0 min 0 min 0 W/m 4,2 km/h (1 Bft)
10.02.2015 17:44 5,5 C 3,9 C 94 % 1030,4 hPa 0,0 l/m 0 min 0 min 0 W/m 4,2 km/h (1 Bft)
10.02.2015 17:46 5,5 C 3,9 C 94 % 1030,4 hPa 0,0 l/m 0 min 0 min 0 W/m 4,2 km/h (1 Bft)
10.02.2015 17:48 5,5 C 3,9 C 94 % 1030,5 hPa 0,0 l/m 0 min 0 min 0 W/m 6,3 km/h (2 Bft)
10.02.2015 17:50 5,4 C 3,9 C 94 % 1030,4 hPa 0,0 l/m 0 min 0 min 0 W/m 6,3 km/h (2 Bft)
10.02.2015 17:52 5,4 C 3,9 C 94 % 1030,5 hPa 0,0 l/m 0 min 0 min 0 W/m 6,3 km/h (2 Bft)
10.02.2015 17:54 5,4 C 3,9 C 94 % 1030,5 hPa 0,0 l/m 0 min 0 min 0 W/m 4,2 km/h (1 Bft)
10.02.2015 17:56 5,4 C 3,9 C 95 % 1030,6 hPa 0,0 l/m 0 min 0 min 0 W/m 6,3 km/h (2 Bft)
10.02.2015 17:58 5,4 C 3,9 C 95 % 1030,5 hPa 0,0 l/m 0 min 0 min 0 W/m 4,2 km/h (1 Bft)
10.02.2015 18:00 5,4 C 3,9 C 95 % 1030,5 hPa 0,0 l/m 0 min 0 min 0 W/m 4,2 km/h (1 Bft)
10.02.2015 18:02 5,4 C 3,9 C 95 % 1030,5 hPa 0,0 l/m 0 min 0 min 0 W/m 4,2 km/h (1 Bft)
10.02.2015 18:05 5,4 C 3,9 C 95 % 1030,5 hPa 0,0 l/m 0 min 0 min 0 W/m 4,2 km/h (1 Bft)
10.02.2015 18:06 5,4 C 3,9 C 95 % 1030,5 hPa 0,0 l/m 0 min 0 min 0 W/m 2,1 km/h (1 Bft)
10.02.2015 18:08 5,4 C 3,9 C 95 % 1030,5 hPa 0,0 l/m 0 min 0 min 0 W/m 4,2 km/h (1 Bft)
10.02.2015 18:10 5,4 C 3,9 C 95 % 1030,5 hPa 0,0 l/m 0 min 0 min 0 W/m 2,1 km/h (1 Bft)
10.02.2015 18:12 5,4 C 3,9 C 95 % 1030,5 hPa 0,0 l/m 0 min 0 min 0 W/m 4,2 km/h (1 Bft)
10.02.2015 18:14 5,4 C 3,9 C 95 % 1030,6 hPa 0,0 l/m 0 min 0 min 0 W/m 4,2 km/h (1 Bft)
10.02.2015 18:16 5,4 C 3,9 C 95 % 1030,6 hPa 0,0 l/m 0 min 0 min 0 W/m 4,2 km/h (1 Bft)
10.02.2015 18:18 5,4 C 3,9 C 95 % 1030,6 hPa 0,0 l/m 0 min 0 min 0 W/m 6,3 km/h (2 Bft)
10.02.2015 18:20 5,4 C 3,9 C 95 % 1030,6 hPa 0,0 l/m 0 min 0 min 0 W/m 6,3 km/h (2 Bft)
10.02.2015 18:22 5,4 C 3,9 C 95 % 1030,6 hPa 0,0 l/m 0 min 0 min 0 W/m 4,2 km/h (1 Bft)
10.02.2015 18:24 5,4 C 3,9 C 95 % 1030,7 hPa 0,0 l/m 0 min 0 min 0 W/m 4,2 km/h (1 Bft)
10.02.2015 18:26 5,4 C 3,9 C 95 % 1030,6 hPa 0,0 l/m 0 min 0 min 0 W/m 6,3 km/h (2 Bft)
10.02.2015 18:28 5,4 C 3,9 C 95 % 1030,6 hPa 0,0 l/m 0 min 0 min 0 W/m 10,5 km/h (2 Bft)
10.02.2015 18:30 5,4 C 3,9 C 95 % 1030,7 hPa 0,0 l/m 0 min 0 min 0 W/m 8,4 km/h (2 Bft)
10.02.2015 18:32 5,3 C 3,9 C 95 % 1030,7 hPa 0,0 l/m 0 min 0 min 0 W/m 6,3 km/h (2 Bft)
10.02.2015 18:34 5,3 C 3,9 C 95 % 1030,7 hPa 0,0 l/m 0 min 0 min 0 W/m 4,2 km/h (1 Bft)
10.02.2015 18:36 5,3 C 3,9 C 95 % 1030,7 hPa 0,0 l/m 0 min 0 min 0 W/m 6,3 km/h (2 Bft)
10.02.2015 18:38 5,3 C 3,9 C 95 % 1030,7 hPa 0,0 l/m 0 min 0 min 0 W/m 4,2 km/h (1 Bft)
10.02.2015 18:40 5,3 C 3,9 C 95 % 1030,7 hPa 0,0 l/m 0 min 0 min 0 W/m 6,3 km/h (2 Bft)
10.02.2015 18:42 5,3 C 3,9 C 95 % 1030,6 hPa 0,0 l/m 0 min 0 min 0 W/m 4,2 km/h (1 Bft)
10.02.2015 18:44 5,3 C 3,9 C 95 % 1030,7 hPa 0,0 l/m 0 min 0 min 0 W/m 4,2 km/h (1 Bft)
10.02.2015 18:46 5,3 C 3,9 C 95 % 1030,7 hPa 0,0 l/m 0 min 0 min 0 W/m 2,1 km/h (1 Bft)
10.02.2015 18:48 5,3 C 3,9 C 95 % 1030,8 hPa 0,0 l/m 0 min 0 min 0 W/m 2,1 km/h (1 Bft)
10.02.2015 18:50 5,3 C 3,9 C 95 % 1030,8 hPa 0,0 l/m 0 min 0 min 0 W/m 4,2 km/h (1 Bft)
10.02.2015 18:52 5,3 C 3,9 C 95 % 1030,7 hPa 0,0 l/m 0 min 0 min 0 W/m 4,2 km/h (1 Bft)
10.02.2015 18:54 5,3 C 3,9 C 95 % 1030,7 hPa 0,0 l/m 0 min 0 min 0 W/m 2,1 km/h (1 Bft)
10.02.2015 18:56 5,3 C 3,9 C 95 % 1030,7 hPa 0,0 l/m 0 min 0 min 0 W/m 2,1 km/h (1 Bft)
10.02.2015 18:58 5,3 C 3,9 C 95 % 1030,8 hPa 0,0 l/m 0 min 0 min 0 W/m 4,2 km/h (1 Bft)
10.02.2015 19:00 5,3 C 3,9 C 95 % 1030,7 hPa 0,0 l/m 0 min 0 min 0 W/m 2,1 km/h (1 Bft)
10.02.2015 19:02 5,3 C 3,9 C 95 % 1030,7 hPa 0,0 l/m 0 min 0 min 0 W/m 2,1 km/h (1 Bft)
10.02.2015 19:04 5,3 C 3,9 C 95 % 1030,8 hPa 0,0 l/m 0 min 0 min 0 W/m 2,1 km/h (1 Bft)
10.02.2015 19:06 5,3 C 3,9 C 95 % 1030,7 hPa 0,0 l/m 0 min 0 min 0 W/m 4,2 km/h (1 Bft)
10.02.2015 19:08 5,3 C 3,9 C 95 % 1030,7 hPa 0,0 l/m 0 min 0 min 0 W/m 4,2 km/h (1 Bft)
10.02.2015 19:10 5,3 C 3,9 C 95 % 1030,7 hPa 0,0 l/m 0 min 0 min 0 W/m 4,2 km/h (1 Bft)
10.02.2015 19:12 5,3 C 3,9 C 95 % 1030,7 hPa 0,0 l/m 0 min 0 min 0 W/m 6,3 km/h (2 Bft)
10.02.2015 19:14 5,3 C 3,9 C 95 % 1030,6 hPa 0,0 l/m 0 min 0 min 0 W/m 4,2 km/h (1 Bft)
10.02.2015 19:16 5,3 C 3,9 C 95 % 1030,6 hPa 0,0 l/m 0 min 0 min 0 W/m 2,1 km/h (1 Bft)
10.02.2015 19:18 5,3 C 3,9 C 95 % 1030,6 hPa 0,0 l/m 0 min 0 min 0 W/m 4,2 km/h (1 Bft)
10.02.2015 19:20 5,3 C 3,9 C 95 % 1030,7 hPa 0,0 l/m 0 min 0 min 0 W/m 4,2 km/h (1 Bft)
10.02.2015 19:22 5,3 C 3,9 C 95 % 1030,6 hPa 0,0 l/m 0 min 0 min 0 W/m 6,3 km/h (2 Bft)
10.02.2015 19:24 5,2 C 3,9 C 95 % 1030,6 hPa 0,0 l/m 0 min 0 min 0 W/m 4,2 km/h (1 Bft)
10.02.2015 19:26 5,2 C 3,9 C 95 % 1030,6 hPa 0,0 l/m 0 min 0 min 0 W/m 2,1 km/h (1 Bft)
10.02.2015 19:28 5,2 C 3,9 C 95 % 1030,6 hPa 0,0 l/m 0 min 0 min 0 W/m 6,3 km/h (2 Bft)
10.02.2015 19:30 5,2 C 3,9 C 95 % 1030,6 hPa 0,0 l/m 0 min 0 min 0 W/m 6,3 km/h (2 Bft)
10.02.2015 19:32 5,2 C 3,9 C 95 % 1030,7 hPa 0,0 l/m 0 min 0 min 0 W/m 6,3 km/h (2 Bft)
10.02.2015 19:34 5,3 C 3,9 C 95 % 1030,7 hPa 0,0 l/m 0 min 0 min 0 W/m 4,2 km/h (1 Bft)
10.02.2015 19:36 5,2 C 3,9 C 95 % 1030,7 hPa 0,0 l/m 0 min 0 min 0 W/m 2,1 km/h (1 Bft)
10.02.2015 19:38 5,2 C 3,9 C 95 % 1030,7 hPa 0,0 l/m 0 min 0 min 0 W/m 4,2 km/h (1 Bft)
10.02.2015 19:40 5,2 C 3,9 C 95 % 1030,7 hPa 0,0 l/m 0 min 0 min 0 W/m 4,2 km/h (1 Bft)
10.02.2015 19:42 5,2 C 3,9 C 95 % 1030,7 hPa 0,0 l/m 0 min 0 min 0 W/m 6,3 km/h (2 Bft)
10.02.2015 19:44 5,2 C 3,9 C 95 % 1030,8 hPa 0,0 l/m 0 min 0 min 0 W/m 6,3 km/h (2 Bft)
10.02.2015 19:46 5,2 C 3,9 C 95 % 1030,7 hPa 0,0 l/m 0 min 0 min 0 W/m 4,2 km/h (1 Bft)
10.02.2015 19:48 5,2 C 3,9 C 95 % 1030,7 hPa 0,0 l/m 0 min 0 min 0 W/m 4,2 km/h (1 Bft)
10.02.2015 19:50 5,2 C 3,9 C 95 % 1030,7 hPa 0,0 l/m 0 min 0 min 0 W/m 6,3 km/h (2 Bft)
10.02.2015 19:52 5,2 C 3,9 C 95 % 1030,7 hPa 0,0 l/m 0 min 0 min 0 W/m 6,3 km/h (2 Bft)
10.02.2015 19:54 5,2 C 3,3 C 95 % 1030,6 hPa 0,0 l/m 0 min 0 min 0 W/m 6,3 km/h (2 Bft)
10.02.2015 19:56 5,2 C 3,9 C 95 % 1030,7 hPa 0,0 l/m 0 min 0 min 0 W/m 6,3 km/h (2 Bft)
10.02.2015 19:58 5,2 C 3,9 C 95 % 1030,7 hPa 0,0 l/m 0 min 0 min 0 W/m 6,3 km/h (2 Bft)
10.02.2015 20:00 5,2 C 3,9 C 95 % 1030,7 hPa 0,0 l/m 0 min 0 min 0 W/m 4,2 km/h (1 Bft)
10.02.2015 20:02 5,2 C 3,9 C 95 % 1030,6 hPa 0,0 l/m 0 min 0 min 0 W/m 6,3 km/h (2 Bft)
10.02.2015 20:04 5,2 C 3,9 C 95 % 1030,6 hPa 0,0 l/m 0 min 0 min 0 W/m 6,3 km/h (2 Bft)
10.02.2015 20:06 5,2 C 3,9 C 96 % 1030,6 hPa 0,0 l/m 0 min 0 min 0 W/m 6,3 km/h (2 Bft)
10.02.2015 20:08 5,2 C 3,9 C 96 % 1030,7 hPa 0,0 l/m 0 min 0 min 0 W/m 6,3 km/h (2 Bft)
10.02.2015 20:10 5,2 C 3,9 C 96 % 1030,6 hPa 0,0 l/m 0 min 0 min 0 W/m 6,3 km/h (2 Bft)
10.02.2015 20:12 5,2 C 3,9 C 95 % 1030,6 hPa 0,0 l/m 0 min 0 min 0 W/m 8,4 km/h (2 Bft)
10.02.2015 20:14 5,2 C 3,9 C 95 % 1030,6 hPa 0,0 l/m 0 min 0 min 0 W/m 8,4 km/h (2 Bft)
10.02.2015 20:16 5,2 C 3,9 C 95 % 1030,5 hPa 0,0 l/m 0 min 0 min 0 W/m 8,4 km/h (2 Bft)
10.02.2015 20:18 5,2 C 3,9 C 95 % 1030,5 hPa 0,0 l/m 0 min 0 min 0 W/m 8,4 km/h (2 Bft)
10.02.2015 20:20 5,2 C 3,9 C 95 % 1030,5 hPa 0,0 l/m 0 min 0 min 0 W/m 6,3 km/h (2 Bft)
10.02.2015 20:22 5,2 C 3,9 C 95 % 1030,6 hPa 0,0 l/m 0 min 0 min 0 W/m 6,3 km/h (2 Bft)
10.02.2015 20:24 5,2 C 3,9 C 95 % 1030,5 hPa 0,0 l/m 0 min 0 min 0 W/m 6,3 km/h (2 Bft)
10.02.2015 20:26 5,2 C 3,9 C 95 % 1030,4 hPa 0,0 l/m 0 min 0 min 0 W/m 6,3 km/h (2 Bft)
10.02.2015 20:28 5,2 C 3,9 C 95 % 1030,4 hPa 0,0 l/m 0 min 0 min 0 W/m 6,3 km/h (2 Bft)
10.02.2015 20:30 5,2 C 3,9 C 95 % 1030,4 hPa 0,0 l/m 0 min 0 min 0 W/m 4,2 km/h (1 Bft)
10.02.2015 20:32 5,2 C 3,9 C 95 % 1030,4 hPa 0,0 l/m 0 min 0 min 0 W/m 8,4 km/h (2 Bft)
10.02.2015 20:34 5,2 C 3,9 C 95 % 1030,4 hPa 0,0 l/m 0 min 0 min 0 W/m 6,3 km/h (2 Bft)
10.02.2015 20:36 5,1 C 3,9 C 96 % 1030,4 hPa 0,0 l/m 0 min 0 min 0 W/m 4,2 km/h (1 Bft)
10.02.2015 20:38 5,1 C 3,9 C 96 % 1030,4 hPa 0,0 l/m 0 min 0 min 0 W/m 4,2 km/h (1 Bft)
10.02.2015 20:40 5,1 C 3,9 C 96 % 1030,4 hPa 0,0 l/m 0 min 0 min 0 W/m 6,3 km/h (2 Bft)
10.02.2015 20:42 5,1 C 3,9 C 96 % 1030,4 hPa 0,0 l/m 0 min 0 min 0 W/m 6,3 km/h (2 Bft)
10.02.2015 20:44 5,1 C 3,9 C 96 % 1030,4 hPa 0,0 l/m 0 min 0 min 0 W/m 6,3 km/h (2 Bft)
10.02.2015 20:46 5,1 C 3,9 C 96 % 1030,4 hPa 0,0 l/m 0 min 0 min 0 W/m 4,2 km/h (1 Bft)
10.02.2015 20:48 5,1 C 3,9 C 96 % 1030,3 hPa 0,0 l/m 0 min 0 min 0 W/m 6,3 km/h (2 Bft)
10.02.2015 20:50 5,1 C 3,9 C 96 % 1030,4 hPa 0,0 l/m 0 min 0 min 0 W/m 6,3 km/h (2 Bft)
10.02.2015 20:52 5,1 C 3,9 C 96 % 1030,4 hPa 0,0 l/m 0 min 0 min 0 W/m 6,3 km/h (2 Bft)
10.02.2015 20:54 5,1 C 3,9 C 96 % 1030,4 hPa 0,0 l/m 0 min 0 min 0 W/m 8,4 km/h (2 Bft)
10.02.2015 20:56 5,1 C 3,9 C 96 % 1030,4 hPa 0,0 l/m 0 min 0 min 0 W/m 6,3 km/h (2 Bft)
10.02.2015 20:58 5,1 C 3,9 C 96 % 1030,4 hPa 0,0 l/m 0 min 0 min 0 W/m 4,2 km/h (1 Bft)
10.02.2015 21:00 5,1 C 3,9 C 96 % 1030,4 hPa 0,0 l/m 0 min 0 min 0 W/m 8,4 km/h (2 Bft)
10.02.2015 21:02 5,1 C 3,9 C 96 % 1030,3 hPa 0,0 l/m 0 min 0 min 0 W/m 4,2 km/h (1 Bft)
10.02.2015 21:04 5,1 C 3,9 C 96 % 1030,3 hPa 0,0 l/m 0 min 0 min 0 W/m 4,2 km/h (1 Bft)
10.02.2015 21:06 5,1 C 3,3 C 96 % 1030,3 hPa 0,0 l/m 0 min 0 min 0 W/m 4,2 km/h (1 Bft)
10.02.2015 21:08 5,1 C 3,3 C 96 % 1030,3 hPa 0,0 l/m 0 min 0 min 0 W/m 4,2 km/h (1 Bft)
10.02.2015 21:10 5,1 C 3,3 C 96 % 1030,3 hPa 0,0 l/m 0 min 0 min 0 W/m 4,2 km/h (1 Bft)
10.02.2015 21:12 5,1 C 3,3 C 96 % 1030,4 hPa 0,0 l/m 0 min 0 min 0 W/m 4,2 km/h (1 Bft)
10.02.2015 21:14 5,1 C 3,3 C 96 % 1030,3 hPa 0,0 l/m 0 min 0 min 0 W/m 6,3 km/h (2 Bft)
10.02.2015 21:16 5,1 C 3,9 C 96 % 1030,4 hPa 0,0 l/m 0 min 0 min 0 W/m 6,3 km/h (2 Bft)
10.02.2015 21:18 5,1 C 3,3 C 96 % 1030,4 hPa 0,0 l/m 0 min 0 min 0 W/m 4,2 km/h (1 Bft)
10.02.2015 21:20 5,1 C 3,3 C 96 % 1030,3 hPa 0,0 l/m 0 min 0 min 0 W/m 6,3 km/h (2 Bft)
10.02.2015 21:22 5,1 C 3,3 C 96 % 1030,3 hPa 0,0 l/m 0 min 0 min 0 W/m 4,2 km/h (1 Bft)
10.02.2015 21:24 5,1 C 3,3 C 96 % 1030,3 hPa 0,0 l/m 0 min 0 min 0 W/m 4,2 km/h (1 Bft)
10.02.2015 21:26 5,1 C 3,3 C 96 % 1030,3 hPa 0,0 l/m 0 min 0 min 0 W/m 2,1 km/h (1 Bft)
10.02.2015 21:28 5,1 C 3,3 C 96 % 1030,4 hPa 0,0 l/m 0 min 0 min 0 W/m 2,1 km/h (1 Bft)
10.02.2015 21:30 5,1 C 3,3 C 96 % 1030,3 hPa 0,0 l/m 0 min 0 min 0 W/m 4,2 km/h (1 Bft)
10.02.2015 21:32 5,1 C 3,3 C 96 % 1030,4 hPa 0,0 l/m 0 min 0 min 0 W/m 4,2 km/h (1 Bft)
10.02.2015 21:34 5,1 C 3,3 C 96 % 1030,3 hPa 0,0 l/m 0 min 0 min 0 W/m 2,1 km/h (1 Bft)
10.02.2015 21:36 5,0 C 3,3 C 96 % 1030,3 hPa 0,0 l/m 0 min 0 min 0 W/m 2,1 km/h (1 Bft)
10.02.2015 21:38 5,0 C 3,3 C 96 % 1030,3 hPa 0,0 l/m 0 min 0 min 0 W/m 2,1 km/h (1 Bft)
10.02.2015 21:40 5,0 C 3,3 C 96 % 1030,4 hPa 0,0 l/m 0 min 0 min 0 W/m 2,1 km/h (1 Bft)
10.02.2015 21:42 5,0 C 3,3 C 96 % 1030,3 hPa 0,0 l/m 0 min 0 min 0 W/m 2,1 km/h (1 Bft)
10.02.2015 21:44 5,0 C 3,3 C 96 % 1030,3 hPa 0,0 l/m 0 min 0 min 0 W/m 2,1 km/h (1 Bft)
10.02.2015 21:46 5,0 C 3,3 C 96 % 1030,3 hPa 0,0 l/m 0 min 0 min 0 W/m 2,1 km/h (1 Bft)
10.02.2015 21:48 5,0 C 3,3 C 96 % 1030,3 hPa 0,0 l/m 0 min 0 min 0 W/m 4,2 km/h (1 Bft)
10.02.2015 21:50 5,0 C 3,3 C 96 % 1030,2 hPa 0,0 l/m 0 min 0 min 0 W/m 2,1 km/h (1 Bft)
10.02.2015 21:52 5,0 C 3,3 C 96 % 1030,3 hPa 0,0 l/m 0 min 0 min 0 W/m 2,1 km/h (1 Bft)
10.02.2015 21:54 5,0 C 3,3 C 96 % 1030,3 hPa 0,0 l/m 0 min 0 min 0 W/m 2,1 km/h (1 Bft)
10.02.2015 21:56 5,0 C 3,3 C 96 % 1030,2 hPa 0,0 l/m 0 min 0 min 0 W/m 4,2 km/h (1 Bft)
10.02.2015 21:58 5,0 C 3,3 C 96 % 1030,2 hPa 0,0 l/m 0 min 0 min 0 W/m 4,2 km/h (1 Bft)
10.02.2015 22:00 5,0 C 3,3 C 96 % 1030,1 hPa 0,0 l/m 0 min 0 min 0 W/m 4,2 km/h (1 Bft)
10.02.2015 22:02 5,0 C 3,3 C 96 % 1030,1 hPa 0,0 l/m 0 min 0 min 0 W/m 4,2 km/h (1 Bft)
10.02.2015 22:04 4,9 C 3,3 C 96 % 1030,1 hPa 0,0 l/m 0 min 0 min 0 W/m 6,3 km/h (2 Bft)
10.02.2015 22:06 4,9 C 3,3 C 96 % 1030,1 hPa 0,0 l/m 0 min 0 min 0 W/m 6,3 km/h (2 Bft)
10.02.2015 22:08 4,9 C 3,3 C 96 % 1030,2 hPa 0,0 l/m 0 min 0 min 0 W/m 4,2 km/h (1 Bft)
10.02.2015 22:10 4,9 C 3,3 C 96 % 1030,1 hPa 0,0 l/m 0 min 0 min 0 W/m 6,3 km/h (2 Bft)
10.02.2015 22:12 4,9 C 3,3 C 96 % 1030,1 hPa 0,0 l/m 0 min 0 min 0 W/m 8,4 km/h (2 Bft)
10.02.2015 22:14 4,9 C 3,3 C 96 % 1030,0 hPa 0,0 l/m 0 min 0 min 0 W/m 6,3 km/h (2 Bft)
10.02.2015 22:16 4,9 C 3,3 C 96 % 1030,1 hPa 0,0 l/m 0 min 0 min 0 W/m 10,5 km/h (2 Bft)
10.02.2015 22:18 4,9 C 3,3 C 96 % 1030,0 hPa 0,0 l/m 0 min 0 min 0 W/m 4,2 km/h (1 Bft)
10.02.2015 22:20 4,9 C 3,3 C 96 % 1029,9 hPa 0,0 l/m 0 min 0 min 0 W/m 6,3 km/h (2 Bft)
10.02.2015 22:22 4,9 C 3,3 C 96 % 1029,9 hPa 0,0 l/m 0 min 0 min 0 W/m 4,2 km/h (1 Bft)
10.02.2015 22:24 4,9 C 3,3 C 96 % 1029,9 hPa 0,0 l/m 0 min 0 min 0 W/m 4,2 km/h (1 Bft)
10.02.2015 22:26 4,9 C 3,3 C 96 % 1029,9 hPa 0,0 l/m 0 min 0 min 0 W/m 4,2 km/h (1 Bft)
10.02.2015 22:28 4,9 C 3,3 C 96 % 1029,9 hPa 0,0 l/m 0 min 0 min 0 W/m 4,2 km/h (1 Bft)
10.02.2015 22:30 4,9 C 3,3 C 96 % 1029,9 hPa 0,0 l/m 0 min 0 min 0 W/m 2,1 km/h (1 Bft)
10.02.2015 22:32 4,9 C 3,3 C 96 % 1029,9 hPa 0,0 l/m 0 min 0 min 0 W/m 6,3 km/h (2 Bft)
10.02.2015 22:34 4,9 C 3,3 C 96 % 1029,9 hPa 0,0 l/m 0 min 0 min 0 W/m 6,3 km/h (2 Bft)
10.02.2015 22:36 4,9 C 3,3 C 96 % 1029,8 hPa 0,0 l/m 0 min 0 min 0 W/m 6,3 km/h (2 Bft)
10.02.2015 22:38 4,9 C 3,3 C 96 % 1029,8 hPa 0,0 l/m 0 min 0 min 0 W/m 10,5 km/h (2 Bft)
10.02.2015 22:40 4,9 C 3,3 C 96 % 1029,8 hPa 0,0 l/m 0 min 0 min 0 W/m 6,3 km/h (2 Bft)
10.02.2015 22:42 4,9 C 3,3 C 96 % 1029,8 hPa 0,0 l/m 0 min 0 min 0 W/m 10,5 km/h (2 Bft)
10.02.2015 22:44 4,9 C 3,3 C 96 % 1029,9 hPa 0,0 l/m 0 min 0 min 0 W/m 6,3 km/h (2 Bft)
10.02.2015 22:46 4,9 C 3,3 C 96 % 1029,8 hPa 0,0 l/m 0 min 0 min 0 W/m 6,3 km/h (2 Bft)
10.02.2015 22:48 4,9 C 3,3 C 96 % 1029,8 hPa 0,0 l/m 0 min 0 min 0 W/m 6,3 km/h (2 Bft)
10.02.2015 22:50 4,9 C 3,3 C 96 % 1029,8 hPa 0,0 l/m 0 min 0 min 0 W/m 4,2 km/h (1 Bft)
10.02.2015 22:52 4,9 C 3,3 C 96 % 1029,7 hPa 0,0 l/m 0 min 0 min 0 W/m 6,3 km/h (2 Bft)
10.02.2015 22:54 4,9 C 3,3 C 96 % 1029,7 hPa 0,0 l/m 0 min 0 min 0 W/m 6,3 km/h (2 Bft)
10.02.2015 22:56 4,9 C 3,3 C 96 % 1029,7 hPa 0,0 l/m 0 min 0 min 0 W/m 6,3 km/h (2 Bft)
10.02.2015 22:58 4,9 C 3,3 C 96 % 1029,7 hPa 0,0 l/m 0 min 0 min 0 W/m 10,5 km/h (2 Bft)
10.02.2015 23:00 4,9 C 3,3 C 96 % 1029,6 hPa 0,0 l/m 0 min 0 min 0 W/m 10,5 km/h (2 Bft)
10.02.2015 23:02 4,9 C 3,3 C 96 % 1029,6 hPa 0,0 l/m 0 min 0 min 0 W/m 10,5 km/h (2 Bft)
10.02.2015 23:04 4,9 C 3,3 C 96 % 1029,5 hPa 0,0 l/m 0 min 0 min 0 W/m 6,3 km/h (2 Bft)
10.02.2015 23:06 4,9 C 3,3 C 96 % 1029,6 hPa 0,0 l/m 0 min 0 min 0 W/m 6,3 km/h (2 Bft)
10.02.2015 23:08 4,9 C 3,3 C 96 % 1029,5 hPa 0,0 l/m 0 min 0 min 0 W/m 8,4 km/h (2 Bft)
10.02.2015 23:10 4,9 C 3,3 C 96 % 1029,5 hPa 0,0 l/m 0 min 0 min 0 W/m 10,5 km/h (2 Bft)
10.02.2015 23:12 4,9 C 3,3 C 96 % 1029,5 hPa 0,0 l/m 0 min 0 min 0 W/m 6,3 km/h (2 Bft)
10.02.2015 23:14 4,9 C 3,3 C 96 % 1029,5 hPa 0,0 l/m 0 min 0 min 0 W/m 6,3 km/h (2 Bft)
10.02.2015 23:16 4,9 C 3,3 C 96 % 1029,5 hPa 0,0 l/m 0 min 0 min 0 W/m 6,3 km/h (2 Bft)
10.02.2015 23:18 4,9 C 3,3 C 96 % 1029,5 hPa 0,0 l/m 0 min 0 min 0 W/m 6,3 km/h (2 Bft)
10.02.2015 23:20 4,9 C 3,3 C 96 % 1029,4 hPa 0,0 l/m 0 min 0 min 0 W/m 6,3 km/h (2 Bft)
10.02.2015 23:22 4,9 C 3,3 C 96 % 1029,3 hPa 0,0 l/m 0 min 0 min 0 W/m 6,3 km/h (2 Bft)
10.02.2015 23:24 4,9 C 3,3 C 96 % 1029,4 hPa 0,0 l/m 0 min 0 min 0 W/m 8,4 km/h (2 Bft)
10.02.2015 23:26 4,9 C 3,3 C 96 % 1029,3 hPa 0,0 l/m 0 min 0 min 0 W/m 8,4 km/h (2 Bft)
10.02.2015 23:28 4,9 C 3,3 C 96 % 1029,3 hPa 0,0 l/m 0 min 0 min 0 W/m 6,3 km/h (2 Bft)
10.02.2015 23:30 4,9 C 3,3 C 96 % 1029,3 hPa 0,0 l/m 0 min 0 min 0 W/m 6,3 km/h (2 Bft)
10.02.2015 23:32 4,9 C 3,3 C 96 % 1029,3 hPa 0,0 l/m 0 min 0 min 0 W/m 6,3 km/h (2 Bft)
10.02.2015 23:34 4,9 C 3,3 C 96 % 1029,3 hPa 0,0 l/m 0 min 0 min 0 W/m 4,2 km/h (1 Bft)
10.02.2015 23:36 4,9 C 3,3 C 96 % 1029,3 hPa 0,0 l/m 0 min 0 min 0 W/m 4,2 km/h (1 Bft)
10.02.2015 23:38 4,9 C 3,3 C 96 % 1029,3 hPa 0,0 l/m 0 min 0 min 0 W/m 4,2 km/h (1 Bft)
10.02.2015 23:40 4,9 C 3,3 C 96 % 1029,3 hPa 0,0 l/m 0 min 0 min 0 W/m 4,2 km/h (1 Bft)
10.02.2015 23:42 4,9 C 3,3 C 96 % 1029,3 hPa 0,0 l/m 0 min 0 min 0 W/m 6,3 km/h (2 Bft)
10.02.2015 23:44 4,9 C 3,3 C 96 % 1029,3 hPa 0,0 l/m 0 min 0 min 0 W/m 10,5 km/h (2 Bft)
10.02.2015 23:46 4,9 C 3,3 C 96 % 1029,3 hPa 0,0 l/m 0 min 0 min 0 W/m 6,3 km/h (2 Bft)
10.02.2015 23:48 4,9 C 3,3 C 96 % 1029,3 hPa 0,0 l/m 0 min 0 min 0 W/m 10,5 km/h (2 Bft)
10.02.2015 23:50 4,9 C 3,3 C 96 % 1029,3 hPa 0,0 l/m 0 min 0 min 0 W/m 10,5 km/h (2 Bft)
10.02.2015 23:52 4,9 C 3,3 C 96 % 1029,3 hPa 0,0 l/m 0 min 0 min 0 W/m 4,2 km/h (1 Bft)
10.02.2015 23:54 4,9 C 3,3 C 96 % 1029,3 hPa 0,0 l/m 0 min 0 min 0 W/m 6,3 km/h (2 Bft)
10.02.2015 23:56 4,9 C 3,3 C 96 % 1029,4 hPa 0,0 l/m 0 min 0 min 0 W/m 6,3 km/h (2 Bft)
10.02.2015 23:58 4,9 C 3,3 C 96 % 1029,3 hPa 0,0 l/m 0 min 0 min 0 W/m 4,2 km/h (1 Bft)
_ Min-Zeit 07:30 04:52 15:32 23:22 - - - - 18:06
Minimum _ 4,4 C 2,8 C 93 % 1029,3 hPa - - - - 2,1 km/h (1 Bft)
_ Max-Zeit 15:56 11:52 02:08 11:24 01:26 11:48 00:40 11:52 01:22
Maximum _ 6,1 C 5,0 C 98 % 1031,8 hPa 0,2 l/m 2 min 2 min 277 W/m 16,7 km/h
W-NW (3 Bft)
Durchschnitt _ 5,0 C 3,7 C 97 % 1030,6 hPa #0,6 l/m #8 min. #2:10 h 60 W/m 8,3 km/h (2 Bft)
© 2015 W. Hausmann